UAE770 OMDB-FACT
Flight info
| Callsign | UAE770 |
|---|---|
| Flight time | 8h 52m |
| Altitude | 32000 |
| Route | ANVIX R401 GIDIS G783 UKRAG/N0500F330 L710 KUKDI/N0504F320 B400 DAXAM/N0500F340 B400 VEDET UL437 ROVUM/N0496F360 UL437 VBU UP305 XOXAM UT969 ESPUV DCT UDGIM UQ60 NEXIT UQ23 OKLOK DCT ERDAS ERDAS1C |
| Aircraft | B77W/H-SDE1E2E3FGHIJ2J3J4J5M1RWXY/LB1D1 |
Departure
| Time | 2026-04-24 05:06 |
|---|---|
| Airport | Dubai International Airport (OMDB) |
Arrival
| Time | 2026-04-24 13:59 |
|---|---|
| Airport | Cape Town International Airport (FACT) |
| Time | Latitude | Longitude | Altitude | Speed | Heading |
|---|---|---|---|---|---|
| 2026-04-24 04:25 | 25.25126 | 55.35477 | 27 ft | 0 kts | 31° |
| 2026-04-24 04:48 | 25.25126 | 55.35476 | 26 ft | 1 kts | 31° |
| 2026-04-24 04:48 | 25.25113 | 55.35468 | 26 ft | 2 kts | 31° |
| 2026-04-24 04:48 | 25.25100 | 55.35460 | 26 ft | 2 kts | 31° |
| 2026-04-24 04:49 | 25.25092 | 55.35454 | 26 ft | 2 kts | 28° |
| 2026-04-24 04:49 | 25.25078 | 55.35448 | 26 ft | 2 kts | 5° |
| 2026-04-24 04:49 | 25.25062 | 55.35449 | 26 ft | 2 kts | 345° |
| 2026-04-24 04:49 | 25.25048 | 55.35455 | 26 ft | 2 kts | 326° |
| 2026-04-24 04:50 | 25.25037 | 55.35466 | 26 ft | 2 kts | 307° |
| 2026-04-24 04:50 | 25.25033 | 55.35473 | 26 ft | 1 kts | 300° |
| 2026-04-24 04:50 | 25.25032 | 55.35474 | 26 ft | 0 kts | 300° |
| 2026-04-24 04:52 | 25.25032 | 55.35473 | 26 ft | 0 kts | 300° |
| 2026-04-24 04:53 | 25.25033 | 55.35471 | 26 ft | 1 kts | 300° |
| 2026-04-24 04:53 | 25.25056 | 55.35429 | 26 ft | 11 kts | 301° |
| 2026-04-24 04:53 | 25.25109 | 55.35334 | 26 ft | 18 kts | 302° |
| 2026-04-24 04:53 | 25.25181 | 55.35220 | 26 ft | 17 kts | 306° |
| 2026-04-24 04:54 | 25.25245 | 55.35116 | 26 ft | 16 kts | 302° |
| 2026-04-24 04:54 | 25.25310 | 55.35001 | 26 ft | 18 kts | 301° |
| 2026-04-24 04:54 | 25.25396 | 55.34900 | 26 ft | 17 kts | 340° |
| 2026-04-24 04:54 | 25.25496 | 55.34925 | 26 ft | 14 kts | 34° |
| 2026-04-24 04:55 | 25.25579 | 55.34977 | 26 ft | 14 kts | 30° |
| 2026-04-24 04:55 | 25.25665 | 55.35035 | 26 ft | 15 kts | 33° |
| 2026-04-24 04:55 | 25.25733 | 55.35110 | 26 ft | 12 kts | 81° |
| 2026-04-24 04:55 | 25.25747 | 55.35198 | 26 ft | 11 kts | 54° |
| 2026-04-24 04:56 | 25.25818 | 55.35253 | 26 ft | 13 kts | 30° |
| 2026-04-24 04:56 | 25.25893 | 55.35301 | 26 ft | 11 kts | 31° |
| 2026-04-24 04:56 | 25.25959 | 55.35351 | 26 ft | 13 kts | 43° |
| 2026-04-24 04:56 | 25.25999 | 55.35458 | 27 ft | 17 kts | 86° |
| 2026-04-24 04:57 | 25.25956 | 55.35592 | 27 ft | 21 kts | 121° |
| 2026-04-24 04:57 | 25.25871 | 55.35744 | 27 ft | 25 kts | 122° |
| 2026-04-24 04:57 | 25.25770 | 55.35926 | 27 ft | 28 kts | 121° |
| 2026-04-24 04:57 | 25.25675 | 55.36097 | 28 ft | 24 kts | 121° |
| 2026-04-24 04:58 | 25.25591 | 55.36251 | 28 ft | 22 kts | 121° |
| 2026-04-24 04:58 | 25.25503 | 55.36407 | 30 ft | 24 kts | 121° |
| 2026-04-24 04:58 | 25.25418 | 55.36560 | 30 ft | 21 kts | 121° |
| 2026-04-24 04:58 | 25.25338 | 55.36706 | 31 ft | 22 kts | 121° |
| 2026-04-24 04:59 | 25.25260 | 55.36849 | 32 ft | 21 kts | 121° |
| 2026-04-24 04:59 | 25.25181 | 55.36989 | 34 ft | 21 kts | 121° |
| 2026-04-24 04:59 | 25.25156 | 55.37034 | 34 ft | 21 kts | 121° |
| 2026-04-24 04:59 | 25.25085 | 55.37163 | 35 ft | 18 kts | 121° |
| 2026-04-24 05:00 | 25.25022 | 55.37277 | 37 ft | 17 kts | 121° |
| 2026-04-24 05:00 | 25.24959 | 55.37390 | 38 ft | 17 kts | 121° |
| 2026-04-24 05:00 | 25.24896 | 55.37503 | 39 ft | 17 kts | 121° |
| 2026-04-24 05:00 | 25.24827 | 55.37627 | 41 ft | 20 kts | 121° |
| 2026-04-24 05:01 | 25.24751 | 55.37765 | 42 ft | 21 kts | 121° |
| 2026-04-24 05:01 | 25.24678 | 55.37895 | 43 ft | 19 kts | 121° |
| 2026-04-24 05:01 | 25.24613 | 55.38013 | 44 ft | 16 kts | 121° |
| 2026-04-24 05:01 | 25.24558 | 55.38112 | 44 ft | 14 kts | 121° |
| 2026-04-24 05:02 | 25.24502 | 55.38215 | 42 ft | 15 kts | 121° |
| 2026-04-24 05:02 | 25.24467 | 55.38277 | 42 ft | 3 kts | 121° |
| 2026-04-24 05:02 | 25.24459 | 55.38293 | 42 ft | 1 kts | 121° |
| 2026-04-24 05:02 | 25.24444 | 55.38319 | 43 ft | 7 kts | 121° |
| 2026-04-24 05:03 | 25.24405 | 55.38391 | 45 ft | 14 kts | 114° |
| 2026-04-24 05:03 | 25.24456 | 55.38491 | 43 ft | 19 kts | 32° |
| 2026-04-24 05:03 | 25.24567 | 55.38555 | 43 ft | 16 kts | 9° |
| 2026-04-24 05:03 | 25.24674 | 55.38540 | 43 ft | 14 kts | 346° |
| 2026-04-24 05:04 | 25.24750 | 55.38488 | 42 ft | 12 kts | 309° |
| 2026-04-24 05:04 | 25.24749 | 55.38417 | 42 ft | 9 kts | 225° |
| 2026-04-24 05:04 | 25.24697 | 55.38377 | 42 ft | 8 kts | 211° |
| 2026-04-24 05:04 | 25.24656 | 55.38344 | 43 ft | 4 kts | 242° |
| 2026-04-24 05:05 | 25.24656 | 55.38308 | 42 ft | 4 kts | 279° |
| 2026-04-24 05:05 | 25.24677 | 55.38259 | 42 ft | 11 kts | 301° |
| 2026-04-24 05:05 | 25.24781 | 55.38073 | 42 ft | 59 kts | 301° |
| 2026-04-24 05:05 | 25.25134 | 55.37437 | 40 ft | 130 kts | 301° |
| 2026-04-24 05:06 | 25.25723 | 55.36379 | 60 ft | 187 kts | 301° |
| 2026-04-24 05:06 | 25.26429 | 55.35078 | 545 ft | 204 kts | 301° |
| 2026-04-24 05:06 | 25.27121 | 55.33773 | 1566 ft | 194 kts | 302° |
| 2026-04-24 05:06 | 25.27833 | 55.32491 | 2074 ft | 199 kts | 303° |
| 2026-04-24 05:07 | 25.28565 | 55.31198 | 2626 ft | 199 kts | 302° |
| 2026-04-24 05:07 | 25.29038 | 55.29761 | 3195 ft | 202 kts | 278° |
| 2026-04-24 05:07 | 25.28957 | 55.28225 | 3760 ft | 204 kts | 254° |
| 2026-04-24 05:07 | 25.28419 | 55.26784 | 4310 ft | 205 kts | 245° |
| 2026-04-24 05:08 | 25.27807 | 55.25356 | 4858 ft | 205 kts | 245° |
| 2026-04-24 05:08 | 25.27204 | 55.23941 | 5403 ft | 205 kts | 245° |
| 2026-04-24 05:08 | 25.26603 | 55.22527 | 5973 ft | 203 kts | 245° |
| 2026-04-24 05:08 | 25.26004 | 55.21115 | 6451 ft | 206 kts | 245° |
| 2026-04-24 05:09 | 25.25376 | 55.19637 | 6713 ft | 221 kts | 245° |
| 2026-04-24 05:09 | 25.24517 | 55.18129 | 6962 ft | 239 kts | 225° |
| 2026-04-24 05:09 | 25.23143 | 55.17111 | 7501 ft | 244 kts | 201° |
| 2026-04-24 05:09 | 25.21429 | 55.16774 | 7958 ft | 257 kts | 180° |
| 2026-04-24 05:10 | 25.19654 | 55.17048 | 8527 ft | 265 kts | 161° |
| 2026-04-24 05:10 | 25.18069 | 55.18122 | 9086 ft | 276 kts | 136° |
| 2026-04-24 05:10 | 25.16942 | 55.19926 | 9365 ft | 297 kts | 117° |
| 2026-04-24 05:10 | 25.16050 | 55.22012 | 9911 ft | 304 kts | 117° |
| 2026-04-24 05:11 | 25.15115 | 55.24103 | 10609 ft | 305 kts | 118° |
| 2026-04-24 05:11 | 25.14141 | 55.26178 | 11244 ft | 309 kts | 119° |
| 2026-04-24 05:11 | 25.13123 | 55.28307 | 11909 ft | 312 kts | 119° |
| 2026-04-24 05:11 | 25.12116 | 55.30399 | 12550 ft | 314 kts | 119° |
| 2026-04-24 05:12 | 25.11076 | 55.32561 | 13217 ft | 316 kts | 119° |
| 2026-04-24 05:12 | 25.10081 | 55.34715 | 13758 ft | 322 kts | 115° |
| 2026-04-24 05:12 | 25.09173 | 55.36972 | 14357 ft | 325 kts | 115° |
| 2026-04-24 05:12 | 25.08261 | 55.39249 | 14974 ft | 327 kts | 116° |
| 2026-04-24 05:13 | 25.06397 | 55.43890 | 15911 ft | 341 kts | 114° |
| 2026-04-24 05:13 | 25.05448 | 55.46382 | 16120 ft | 358 kts | 114° |
| 2026-04-24 05:13 | 25.04470 | 55.48940 | 16331 ft | 374 kts | 115° |
| 2026-04-24 05:14 | 25.03441 | 55.51617 | 16562 ft | 389 kts | 114° |
| 2026-04-24 05:14 | 25.02359 | 55.54420 | 16771 ft | 404 kts | 116° |
| 2026-04-24 05:14 | 25.01014 | 55.57216 | 16916 ft | 418 kts | 122° |
| 2026-04-24 05:14 | 24.99513 | 55.60003 | 17134 ft | 432 kts | 122° |
| 2026-04-24 05:15 | 24.97954 | 55.62880 | 17590 ft | 438 kts | 122° |
| 2026-04-24 05:15 | 24.96400 | 55.65750 | 18209 ft | 440 kts | 122° |
| 2026-04-24 05:15 | 24.94829 | 55.68652 | 18801 ft | 443 kts | 123° |
| 2026-04-24 05:15 | 24.93113 | 55.71490 | 19237 ft | 448 kts | 128° |
| 2026-04-24 05:16 | 24.91275 | 55.74271 | 19711 ft | 453 kts | 128° |
| 2026-04-24 05:16 | 24.89398 | 55.77094 | 20300 ft | 455 kts | 128° |
| 2026-04-24 05:16 | 24.87531 | 55.79904 | 20856 ft | 458 kts | 128° |
| 2026-04-24 05:16 | 24.85636 | 55.82754 | 21327 ft | 463 kts | 128° |
| 2026-04-24 05:17 | 24.83737 | 55.85609 | 21798 ft | 467 kts | 129° |
| 2026-04-24 05:17 | 24.81603 | 55.88322 | 22218 ft | 470 kts | 137° |
| 2026-04-24 05:17 | 24.79075 | 55.90645 | 22643 ft | 472 kts | 147° |
| 2026-04-24 05:17 | 24.76240 | 55.92480 | 23102 ft | 472 kts | 157° |
| 2026-04-24 05:18 | 24.73179 | 55.93786 | 23533 ft | 472 kts | 166° |
| 2026-04-24 05:18 | 24.69981 | 55.94531 | 23927 ft | 472 kts | 175° |
| 2026-04-24 05:18 | 24.66687 | 55.94699 | 24321 ft | 473 kts | 185° |
| 2026-04-24 05:18 | 24.63438 | 55.94290 | 24711 ft | 473 kts | 194° |
| 2026-04-24 05:19 | 24.60244 | 55.93299 | 25141 ft | 472 kts | 203° |
| 2026-04-24 05:19 | 24.57278 | 55.91783 | 25575 ft | 471 kts | 212° |
| 2026-04-24 05:19 | 24.54567 | 55.89775 | 25971 ft | 471 kts | 221° |
| 2026-04-24 05:19 | 24.52175 | 55.87339 | 26352 ft | 472 kts | 228° |
| 2026-04-24 05:20 | 24.49894 | 55.84744 | 26780 ft | 475 kts | 228° |
| 2026-04-24 05:20 | 24.47562 | 55.82188 | 27204 ft | 478 kts | 227° |
| 2026-04-24 05:20 | 24.45155 | 55.79645 | 27597 ft | 482 kts | 226° |
| 2026-04-24 05:20 | 24.42702 | 55.77120 | 28003 ft | 485 kts | 225° |
| 2026-04-24 05:21 | 24.40201 | 55.74598 | 28431 ft | 488 kts | 225° |
| 2026-04-24 05:21 | 24.37672 | 55.72084 | 28807 ft | 492 kts | 225° |
| 2026-04-24 05:21 | 24.35141 | 55.69591 | 29118 ft | 496 kts | 224° |
| 2026-04-24 05:21 | 24.32555 | 55.67065 | 29570 ft | 498 kts | 224° |
| 2026-04-24 05:22 | 24.29939 | 55.64527 | 30205 ft | 496 kts | 224° |
| 2026-04-24 05:22 | 24.27189 | 55.62247 | 30946 ft | 494 kts | 216° |
| 2026-04-24 05:22 | 24.24173 | 55.60457 | 31672 ft | 492 kts | 207° |
| 2026-04-24 05:22 | 24.20950 | 55.59145 | 31922 ft | 498 kts | 200° |
| 2026-04-24 05:23 | 24.17620 | 55.58113 | 31935 ft | 499 kts | 199° |
| 2026-04-24 05:23 | 24.10937 | 55.56122 | 31935 ft | 496 kts | 199° |
| 2026-04-24 05:24 | 24.04265 | 55.54134 | 31931 ft | 498 kts | 199° |
| 2026-04-24 05:24 | 23.97580 | 55.52145 | 31932 ft | 497 kts | 198° |
| 2026-04-24 05:25 | 23.90931 | 55.50172 | 31927 ft | 497 kts | 199° |
| 2026-04-24 05:25 | 23.84187 | 55.48172 | 31922 ft | 498 kts | 199° |
| 2026-04-24 05:26 | 23.77513 | 55.46190 | 31919 ft | 497 kts | 199° |
| 2026-04-24 05:26 | 23.70806 | 55.44200 | 31916 ft | 498 kts | 199° |
| 2026-04-24 05:27 | 23.64113 | 55.42216 | 31910 ft | 497 kts | 199° |
| 2026-04-24 05:27 | 23.57358 | 55.40219 | 31902 ft | 498 kts | 197° |
| 2026-04-24 05:28 | 23.50451 | 55.39417 | 31900 ft | 506 kts | 180° |
| 2026-04-24 05:28 | 23.43479 | 55.40769 | 31904 ft | 510 kts | 168° |
| 2026-04-24 05:29 | 23.36637 | 55.42864 | 31897 ft | 512 kts | 166° |
| 2026-04-24 05:29 | 23.29842 | 55.45043 | 31895 ft | 509 kts | 166° |
| 2026-04-24 05:30 | 23.23017 | 55.47214 | 31896 ft | 512 kts | 166° |
| 2026-04-24 05:30 | 23.16132 | 55.49395 | 31898 ft | 511 kts | 166° |
| 2026-04-24 05:31 | 23.09297 | 55.51554 | 31897 ft | 510 kts | 166° |
| 2026-04-24 05:31 | 23.02464 | 55.53704 | 31899 ft | 511 kts | 166° |
| 2026-04-24 05:32 | 22.95650 | 55.55801 | 31898 ft | 509 kts | 166° |
| 2026-04-24 05:32 | 22.88799 | 55.57902 | 31894 ft | 511 kts | 166° |
| 2026-04-24 05:33 | 22.81917 | 55.60011 | 31893 ft | 512 kts | 166° |
| 2026-04-24 05:33 | 22.75059 | 55.62111 | 31893 ft | 513 kts | 166° |
| 2026-04-24 05:34 | 22.64757 | 55.65263 | 31890 ft | 512 kts | 166° |
| 2026-04-24 05:34 | 22.57899 | 55.67361 | 31892 ft | 515 kts | 166° |
| 2026-04-24 05:35 | 22.50999 | 55.69473 | 31893 ft | 512 kts | 166° |
| 2026-04-24 05:35 | 22.44146 | 55.71568 | 31897 ft | 513 kts | 166° |
| 2026-04-24 05:36 | 22.37255 | 55.73672 | 31897 ft | 514 kts | 166° |
| 2026-04-24 05:36 | 22.30332 | 55.75785 | 31902 ft | 513 kts | 166° |
| 2026-04-24 05:37 | 22.23385 | 55.77385 | 31905 ft | 513 kts | 176° |
| 2026-04-24 05:37 | 22.16261 | 55.78110 | 31905 ft | 510 kts | 177° |
| 2026-04-24 05:38 | 22.09161 | 55.78811 | 31904 ft | 512 kts | 177° |
| 2026-04-24 05:38 | 22.02052 | 55.79515 | 31903 ft | 512 kts | 177° |
| 2026-04-24 05:39 | 21.94889 | 55.80225 | 31902 ft | 512 kts | 177° |
| 2026-04-24 05:39 | 21.87804 | 55.80927 | 31899 ft | 513 kts | 177° |
| 2026-04-24 05:40 | 21.80687 | 55.81632 | 31896 ft | 513 kts | 177° |
| 2026-04-24 05:40 | 21.73531 | 55.82340 | 31896 ft | 513 kts | 177° |
| 2026-04-24 05:41 | 21.66415 | 55.83042 | 31897 ft | 513 kts | 177° |
| 2026-04-24 05:41 | 21.59287 | 55.83742 | 31897 ft | 515 kts | 177° |
| 2026-04-24 05:42 | 21.52139 | 55.84444 | 31899 ft | 512 kts | 177° |
| 2026-04-24 05:42 | 21.45000 | 55.85143 | 31900 ft | 516 kts | 177° |
| 2026-04-24 05:43 | 21.37848 | 55.85844 | 31903 ft | 514 kts | 176° |
| 2026-04-24 05:43 | 21.30731 | 55.86540 | 31905 ft | 514 kts | 176° |
| 2026-04-24 05:44 | 21.23596 | 55.87237 | 31909 ft | 514 kts | 177° |
| 2026-04-24 05:44 | 21.16442 | 55.87934 | 31907 ft | 515 kts | 177° |
| 2026-04-24 05:45 | 21.09296 | 55.88630 | 31910 ft | 513 kts | 176° |
| 2026-04-24 05:45 | 21.02138 | 55.89326 | 31913 ft | 516 kts | 176° |
| 2026-04-24 05:46 | 20.95004 | 55.90019 | 31909 ft | 516 kts | 176° |
| 2026-04-24 05:46 | 20.87820 | 55.90716 | 31914 ft | 516 kts | 176° |
| 2026-04-24 05:47 | 20.80654 | 55.91411 | 31908 ft | 515 kts | 176° |
| 2026-04-24 05:47 | 20.73505 | 55.92105 | 31907 ft | 515 kts | 176° |
| 2026-04-24 05:48 | 20.66360 | 55.92796 | 31907 ft | 517 kts | 176° |
| 2026-04-24 05:48 | 20.59144 | 55.93495 | 31914 ft | 517 kts | 176° |
| 2026-04-24 05:49 | 20.51958 | 55.94190 | 31913 ft | 517 kts | 176° |
| 2026-04-24 05:49 | 20.44817 | 55.94879 | 31914 ft | 517 kts | 176° |
| 2026-04-24 05:50 | 20.37622 | 55.95574 | 31913 ft | 517 kts | 176° |
| 2026-04-24 05:50 | 20.30473 | 55.96263 | 31911 ft | 517 kts | 176° |
| 2026-04-24 05:51 | 20.23266 | 55.96950 | 31909 ft | 515 kts | 176° |
| 2026-04-24 05:51 | 20.16089 | 55.97632 | 31918 ft | 519 kts | 176° |
| 2026-04-24 05:52 | 20.08868 | 55.98318 | 31930 ft | 516 kts | 176° |
| 2026-04-24 05:52 | 20.01692 | 55.98638 | 31939 ft | 517 kts | 180° |
| 2026-04-24 05:53 | 19.94469 | 55.98772 | 31938 ft | 515 kts | 180° |
| 2026-04-24 05:53 | 19.87313 | 55.98924 | 31937 ft | 515 kts | 180° |
| 2026-04-24 05:54 | 19.80093 | 55.99089 | 31935 ft | 517 kts | 180° |
| 2026-04-24 05:54 | 19.72980 | 55.99258 | 31938 ft | 520 kts | 180° |
| 2026-04-24 05:55 | 19.65725 | 55.99435 | 31937 ft | 518 kts | 180° |
| 2026-04-24 05:55 | 19.58495 | 55.99612 | 31938 ft | 518 kts | 180° |
| 2026-04-24 05:56 | 19.51373 | 55.98954 | 31935 ft | 514 kts | 195° |
| 2026-04-24 05:56 | 19.44718 | 55.96198 | 31936 ft | 508 kts | 212° |
| 2026-04-24 05:57 | 19.38575 | 55.92503 | 31939 ft | 511 kts | 213° |
| 2026-04-24 05:57 | 19.32379 | 55.88748 | 31940 ft | 509 kts | 212° |
| 2026-04-24 05:58 | 19.26220 | 55.85018 | 31943 ft | 511 kts | 213° |
| 2026-04-24 05:58 | 19.20035 | 55.81276 | 31941 ft | 511 kts | 212° |
| 2026-04-24 05:59 | 19.13877 | 55.77554 | 31941 ft | 509 kts | 212° |
| 2026-04-24 05:59 | 19.07704 | 55.73826 | 31942 ft | 510 kts | 212° |
| 2026-04-24 06:00 | 19.01540 | 55.70106 | 31942 ft | 510 kts | 213° |
| 2026-04-24 06:00 | 18.95372 | 55.66389 | 31938 ft | 509 kts | 212° |
| 2026-04-24 06:01 | 18.89200 | 55.62672 | 31948 ft | 509 kts | 213° |
| 2026-04-24 06:01 | 18.82989 | 55.58935 | 31938 ft | 508 kts | 213° |
| 2026-04-24 06:02 | 18.76868 | 55.55256 | 31939 ft | 510 kts | 213° |
| 2026-04-24 06:02 | 18.70700 | 55.51551 | 31939 ft | 508 kts | 213° |
| 2026-04-24 06:03 | 18.64555 | 55.47863 | 31951 ft | 509 kts | 213° |
| 2026-04-24 06:03 | 18.58375 | 55.44158 | 31952 ft | 508 kts | 213° |
| 2026-04-24 06:04 | 18.52251 | 55.40489 | 31952 ft | 507 kts | 213° |
| 2026-04-24 06:04 | 18.46099 | 55.36805 | 31955 ft | 507 kts | 212° |
| 2026-04-24 06:05 | 18.39930 | 55.33116 | 31963 ft | 508 kts | 212° |
| 2026-04-24 06:05 | 18.33772 | 55.29436 | 31963 ft | 507 kts | 212° |
| 2026-04-24 06:06 | 18.27649 | 55.25781 | 31966 ft | 507 kts | 212° |
| 2026-04-24 06:06 | 18.21483 | 55.22104 | 31967 ft | 509 kts | 212° |
| 2026-04-24 06:07 | 18.15271 | 55.18406 | 31967 ft | 508 kts | 211° |
| 2026-04-24 06:07 | 18.08813 | 55.15325 | 31967 ft | 514 kts | 206° |
| 2026-04-24 06:08 | 18.02250 | 55.12384 | 31957 ft | 512 kts | 206° |
| 2026-04-24 06:08 | 17.95649 | 55.09425 | 31968 ft | 513 kts | 206° |
| 2026-04-24 06:09 | 17.89094 | 55.06488 | 31962 ft | 510 kts | 205° |
| 2026-04-24 06:09 | 17.82522 | 55.03543 | 31965 ft | 513 kts | 206° |
| 2026-04-24 06:10 | 17.75945 | 55.00599 | 31971 ft | 512 kts | 206° |
| 2026-04-24 06:11 | 17.66075 | 54.96183 | 31986 ft | 513 kts | 206° |
| 2026-04-24 06:11 | 17.59478 | 54.93234 | 31997 ft | 515 kts | 206° |
| 2026-04-24 06:12 | 17.52903 | 54.90297 | 32017 ft | 514 kts | 206° |
| 2026-04-24 06:12 | 17.46299 | 54.87350 | 32033 ft | 514 kts | 206° |
| 2026-04-24 06:13 | 17.39664 | 54.84391 | 32058 ft | 516 kts | 206° |
| 2026-04-24 06:13 | 17.33091 | 54.81462 | 32069 ft | 514 kts | 206° |
| 2026-04-24 06:14 | 17.26547 | 54.78379 | 32080 ft | 513 kts | 213° |
| 2026-04-24 06:14 | 17.20497 | 54.74413 | 32078 ft | 511 kts | 216° |
| 2026-04-24 06:15 | 17.14526 | 54.70408 | 32027 ft | 510 kts | 216° |
| 2026-04-24 06:15 | 17.08522 | 54.66385 | 31993 ft | 511 kts | 216° |
| 2026-04-24 06:16 | 17.02566 | 54.62402 | 31959 ft | 512 kts | 216° |
| 2026-04-24 06:16 | 16.96543 | 54.58378 | 31931 ft | 510 kts | 216° |
| 2026-04-24 06:17 | 16.90547 | 54.54375 | 31931 ft | 513 kts | 217° |
| 2026-04-24 06:17 | 16.84505 | 54.50345 | 31915 ft | 511 kts | 216° |
| 2026-04-24 06:18 | 16.78526 | 54.46358 | 31921 ft | 511 kts | 217° |
| 2026-04-24 06:18 | 16.72547 | 54.42374 | 31924 ft | 509 kts | 217° |
| 2026-04-24 06:19 | 16.66536 | 54.38372 | 31923 ft | 512 kts | 217° |
| 2026-04-24 06:19 | 16.60507 | 54.34361 | 31927 ft | 512 kts | 216° |
| 2026-04-24 06:20 | 16.54506 | 54.30372 | 31934 ft | 513 kts | 216° |
| 2026-04-24 06:20 | 16.48488 | 54.26375 | 31930 ft | 512 kts | 216° |
| 2026-04-24 06:21 | 16.42439 | 54.22360 | 31933 ft | 512 kts | 217° |
| 2026-04-24 06:21 | 16.36435 | 54.18378 | 31935 ft | 514 kts | 217° |
| 2026-04-24 06:22 | 16.30420 | 54.14392 | 31931 ft | 512 kts | 216° |
| 2026-04-24 06:22 | 16.24408 | 54.10410 | 31932 ft | 513 kts | 217° |
| 2026-04-24 06:23 | 16.18378 | 54.06420 | 31932 ft | 512 kts | 217° |
| 2026-04-24 06:23 | 16.12343 | 54.02429 | 31934 ft | 512 kts | 217° |
| 2026-04-24 06:24 | 16.06347 | 53.98467 | 31934 ft | 512 kts | 217° |
| 2026-04-24 06:24 | 16.00289 | 53.94466 | 31936 ft | 514 kts | 217° |
| 2026-04-24 06:25 | 15.94285 | 53.90505 | 31939 ft | 513 kts | 217° |
| 2026-04-24 06:25 | 15.88211 | 53.86500 | 31928 ft | 514 kts | 217° |
| 2026-04-24 06:26 | 15.82228 | 53.82511 | 31937 ft | 512 kts | 217° |
| 2026-04-24 06:26 | 15.76195 | 53.78474 | 31933 ft | 513 kts | 217° |
| 2026-04-24 06:27 | 15.70187 | 53.74459 | 31924 ft | 513 kts | 217° |
| 2026-04-24 06:27 | 15.64182 | 53.70451 | 31917 ft | 513 kts | 217° |
| 2026-04-24 06:28 | 15.58169 | 53.66439 | 31918 ft | 514 kts | 217° |
| 2026-04-24 06:28 | 15.52152 | 53.62429 | 31919 ft | 511 kts | 217° |
| 2026-04-24 06:29 | 15.46144 | 53.58427 | 31916 ft | 514 kts | 217° |
| 2026-04-24 06:29 | 15.40112 | 53.54463 | 31917 ft | 513 kts | 216° |
| 2026-04-24 06:30 | 15.34033 | 53.50574 | 31915 ft | 514 kts | 216° |
| 2026-04-24 06:30 | 15.27914 | 53.46660 | 31913 ft | 512 kts | 216° |
| 2026-04-24 06:31 | 15.21846 | 53.42776 | 31909 ft | 513 kts | 216° |
| 2026-04-24 06:31 | 15.15787 | 53.38899 | 31911 ft | 514 kts | 216° |
| 2026-04-24 06:32 | 15.09694 | 53.35002 | 31911 ft | 514 kts | 216° |
| 2026-04-24 06:32 | 15.03558 | 53.31080 | 31916 ft | 515 kts | 216° |
| 2026-04-24 06:33 | 14.97485 | 53.27201 | 31920 ft | 513 kts | 216° |
| 2026-04-24 06:33 | 14.91366 | 53.23293 | 31921 ft | 515 kts | 216° |
| 2026-04-24 06:34 | 14.85263 | 53.19400 | 31908 ft | 512 kts | 216° |
| 2026-04-24 06:34 | 14.79226 | 53.15551 | 31909 ft | 512 kts | 216° |
| 2026-04-24 06:35 | 14.73101 | 53.11648 | 31910 ft | 514 kts | 216° |
| 2026-04-24 06:35 | 14.67039 | 53.07788 | 31911 ft | 513 kts | 216° |
| 2026-04-24 06:36 | 14.60941 | 53.03883 | 31906 ft | 511 kts | 216° |
| 2026-04-24 06:36 | 14.54915 | 53.00008 | 31912 ft | 512 kts | 216° |
| 2026-04-24 06:37 | 14.48873 | 52.96127 | 31915 ft | 513 kts | 216° |
| 2026-04-24 06:37 | 14.42785 | 52.92220 | 31917 ft | 512 kts | 216° |
| 2026-04-24 06:38 | 14.36741 | 52.88344 | 31914 ft | 513 kts | 216° |
| 2026-04-24 06:38 | 14.30655 | 52.84444 | 31918 ft | 515 kts | 216° |
| 2026-04-24 06:39 | 14.24579 | 52.80554 | 31914 ft | 511 kts | 216° |
| 2026-04-24 06:39 | 14.18515 | 52.76673 | 31916 ft | 510 kts | 216° |
| 2026-04-24 06:40 | 14.12491 | 52.72820 | 31912 ft | 512 kts | 216° |
| 2026-04-24 06:40 | 14.06406 | 52.68931 | 31914 ft | 513 kts | 216° |
| 2026-04-24 06:41 | 14.00328 | 52.65050 | 31912 ft | 510 kts | 216° |
| 2026-04-24 06:41 | 13.94298 | 52.61200 | 31913 ft | 513 kts | 216° |
| 2026-04-24 06:42 | 13.88223 | 52.57324 | 31909 ft | 512 kts | 216° |
| 2026-04-24 06:42 | 13.82150 | 52.53453 | 31905 ft | 512 kts | 216° |
| 2026-04-24 06:43 | 13.76084 | 52.49588 | 31902 ft | 513 kts | 216° |
| 2026-04-24 06:43 | 13.69977 | 52.45699 | 31897 ft | 514 kts | 216° |
| 2026-04-24 06:44 | 13.63855 | 52.41804 | 31890 ft | 513 kts | 216° |
| 2026-04-24 06:44 | 13.57801 | 52.37954 | 31888 ft | 515 kts | 217° |
| 2026-04-24 06:45 | 13.51717 | 52.34087 | 31892 ft | 512 kts | 216° |
| 2026-04-24 06:45 | 13.45604 | 52.30204 | 31898 ft | 516 kts | 216° |
| 2026-04-24 06:46 | 13.39486 | 52.26321 | 31902 ft | 515 kts | 216° |
| 2026-04-24 06:46 | 13.33364 | 52.22445 | 31902 ft | 517 kts | 216° |
| 2026-04-24 06:47 | 13.27253 | 52.18583 | 31910 ft | 515 kts | 216° |
| 2026-04-24 06:47 | 13.21147 | 52.14726 | 31908 ft | 517 kts | 216° |
| 2026-04-24 06:48 | 13.15013 | 52.10853 | 31913 ft | 516 kts | 216° |
| 2026-04-24 06:48 | 13.08892 | 52.06991 | 31915 ft | 517 kts | 216° |
| 2026-04-24 06:49 | 13.02735 | 52.03108 | 31913 ft | 519 kts | 216° |
| 2026-04-24 06:49 | 12.96565 | 51.99219 | 31915 ft | 519 kts | 217° |
| 2026-04-24 06:50 | 12.90407 | 51.95341 | 31915 ft | 516 kts | 217° |
| 2026-04-24 06:50 | 12.84280 | 51.91484 | 31905 ft | 516 kts | 217° |
| 2026-04-24 06:51 | 12.78125 | 51.87610 | 31903 ft | 518 kts | 217° |
| 2026-04-24 06:51 | 12.72005 | 51.83762 | 31902 ft | 517 kts | 217° |
| 2026-04-24 06:52 | 12.65881 | 51.79914 | 31901 ft | 516 kts | 217° |
| 2026-04-24 06:52 | 12.59756 | 51.76067 | 31899 ft | 517 kts | 217° |
| 2026-04-24 06:53 | 12.53608 | 51.72207 | 31900 ft | 518 kts | 217° |
| 2026-04-24 06:53 | 12.47451 | 51.68344 | 31899 ft | 516 kts | 216° |
| 2026-04-24 06:54 | 12.41340 | 51.64513 | 31899 ft | 518 kts | 217° |
| 2026-04-24 06:54 | 12.35184 | 51.60655 | 31897 ft | 518 kts | 217° |
| 2026-04-24 06:55 | 12.29064 | 51.56822 | 31894 ft | 516 kts | 217° |
| 2026-04-24 06:55 | 12.22925 | 51.52979 | 31896 ft | 518 kts | 217° |
| 2026-04-24 06:56 | 12.16750 | 51.49116 | 31890 ft | 517 kts | 217° |
| 2026-04-24 06:56 | 12.10580 | 51.45258 | 31887 ft | 518 kts | 217° |
| 2026-04-24 06:57 | 12.04434 | 51.41417 | 31886 ft | 518 kts | 217° |
| 2026-04-24 06:57 | 11.98264 | 51.37561 | 31884 ft | 518 kts | 217° |
| 2026-04-24 06:58 | 11.92134 | 51.33731 | 31885 ft | 516 kts | 217° |
| 2026-04-24 06:58 | 11.85961 | 51.29875 | 31878 ft | 518 kts | 216° |
| 2026-04-24 06:59 | 11.79819 | 51.26041 | 31877 ft | 518 kts | 216° |
| 2026-04-24 06:59 | 11.73663 | 51.22201 | 31882 ft | 517 kts | 217° |
| 2026-04-24 07:00 | 11.67461 | 51.18333 | 31886 ft | 519 kts | 216° |
| 2026-04-24 07:00 | 11.61281 | 51.14482 | 31901 ft | 519 kts | 217° |
| 2026-04-24 07:01 | 11.55137 | 51.10656 | 31911 ft | 518 kts | 217° |
| 2026-04-24 07:01 | 11.48943 | 51.06800 | 31929 ft | 517 kts | 217° |
| 2026-04-24 07:02 | 11.42794 | 51.02974 | 31946 ft | 518 kts | 217° |
| 2026-04-24 07:02 | 11.36643 | 50.99146 | 31957 ft | 518 kts | 217° |
| 2026-04-24 07:03 | 11.30506 | 50.95323 | 31970 ft | 517 kts | 217° |
| 2026-04-24 07:03 | 11.24337 | 50.91481 | 31974 ft | 518 kts | 217° |
| 2026-04-24 07:04 | 11.18189 | 50.87656 | 31975 ft | 518 kts | 217° |
| 2026-04-24 07:04 | 11.12023 | 50.83821 | 31960 ft | 517 kts | 217° |
| 2026-04-24 07:05 | 11.05888 | 50.80007 | 31957 ft | 519 kts | 217° |
| 2026-04-24 07:05 | 10.99742 | 50.76189 | 31956 ft | 517 kts | 217° |
| 2026-04-24 07:06 | 10.93595 | 50.72372 | 31962 ft | 516 kts | 217° |
| 2026-04-24 07:06 | 10.87423 | 50.68541 | 31949 ft | 516 kts | 217° |
| 2026-04-24 07:07 | 10.81283 | 50.64732 | 31965 ft | 516 kts | 217° |
| 2026-04-24 07:07 | 10.72103 | 50.59039 | 31970 ft | 517 kts | 217° |
| 2026-04-24 07:08 | 10.65957 | 50.55232 | 31975 ft | 515 kts | 217° |
| 2026-04-24 07:08 | 10.59806 | 50.51422 | 31973 ft | 516 kts | 216° |
| 2026-04-24 07:09 | 10.53689 | 50.47635 | 31971 ft | 515 kts | 216° |
| 2026-04-24 07:09 | 10.47552 | 50.43838 | 31972 ft | 514 kts | 216° |
| 2026-04-24 07:10 | 10.41407 | 50.40037 | 31967 ft | 516 kts | 216° |
| 2026-04-24 07:10 | 10.35259 | 50.36238 | 31963 ft | 514 kts | 216° |
| 2026-04-24 07:11 | 10.29154 | 50.32465 | 31969 ft | 513 kts | 216° |
| 2026-04-24 07:11 | 10.23036 | 50.28686 | 31964 ft | 514 kts | 216° |
| 2026-04-24 07:12 | 10.16934 | 50.24920 | 31973 ft | 514 kts | 216° |
| 2026-04-24 07:12 | 10.10825 | 50.21150 | 31987 ft | 512 kts | 216° |
| 2026-04-24 07:13 | 10.04729 | 50.17390 | 31995 ft | 511 kts | 216° |
| 2026-04-24 07:13 | 9.98655 | 50.13646 | 32002 ft | 512 kts | 216° |
| 2026-04-24 07:14 | 9.92553 | 50.09885 | 31999 ft | 511 kts | 216° |
| 2026-04-24 07:14 | 9.86425 | 50.06111 | 31994 ft | 511 kts | 216° |
| 2026-04-24 07:15 | 9.80323 | 50.02354 | 32003 ft | 511 kts | 216° |
| 2026-04-24 07:15 | 9.74257 | 49.98621 | 32004 ft | 511 kts | 216° |
| 2026-04-24 07:16 | 9.68140 | 49.94858 | 32011 ft | 512 kts | 216° |
| 2026-04-24 07:16 | 9.62062 | 49.91121 | 32007 ft | 510 kts | 216° |
| 2026-04-24 07:17 | 9.55973 | 49.87379 | 32006 ft | 510 kts | 216° |
| 2026-04-24 07:17 | 9.49913 | 49.83655 | 31999 ft | 510 kts | 216° |
| 2026-04-24 07:18 | 9.43848 | 49.79931 | 32000 ft | 509 kts | 216° |
| 2026-04-24 07:18 | 9.37759 | 49.76193 | 32001 ft | 511 kts | 216° |
| 2026-04-24 07:19 | 9.31658 | 49.72450 | 31996 ft | 509 kts | 215° |
| 2026-04-24 07:19 | 9.25578 | 49.68721 | 31994 ft | 510 kts | 215° |
| 2026-04-24 07:20 | 9.19503 | 49.64996 | 31997 ft | 510 kts | 215° |
| 2026-04-24 07:20 | 9.13416 | 49.61268 | 31997 ft | 510 kts | 215° |
| 2026-04-24 07:21 | 9.07355 | 49.57558 | 31994 ft | 509 kts | 215° |
| 2026-04-24 07:21 | 9.01260 | 49.53827 | 31997 ft | 509 kts | 215° |
| 2026-04-24 07:22 | 8.95192 | 49.50115 | 32000 ft | 508 kts | 215° |
| 2026-04-24 07:22 | 8.89124 | 49.46403 | 31999 ft | 509 kts | 215° |
| 2026-04-24 07:23 | 8.83053 | 49.42692 | 31993 ft | 510 kts | 215° |
| 2026-04-24 07:23 | 8.76976 | 49.38978 | 31989 ft | 510 kts | 215° |
| 2026-04-24 07:24 | 8.70879 | 49.35254 | 31993 ft | 510 kts | 215° |
| 2026-04-24 07:24 | 8.64800 | 49.31541 | 31993 ft | 510 kts | 215° |
| 2026-04-24 07:25 | 8.58666 | 49.27799 | 31988 ft | 510 kts | 214° |
| 2026-04-24 07:25 | 8.52578 | 49.24087 | 31986 ft | 511 kts | 215° |
| 2026-04-24 07:26 | 8.46468 | 49.20364 | 31975 ft | 511 kts | 214° |
| 2026-04-24 07:26 | 8.40369 | 49.16649 | 31973 ft | 510 kts | 214° |
| 2026-04-24 07:27 | 8.34300 | 49.12952 | 31976 ft | 510 kts | 214° |
| 2026-04-24 07:27 | 8.28232 | 49.09258 | 31972 ft | 509 kts | 214° |
| 2026-04-24 07:28 | 8.22159 | 49.05563 | 31978 ft | 510 kts | 214° |
| 2026-04-24 07:28 | 8.16067 | 49.01857 | 31981 ft | 510 kts | 214° |
| 2026-04-24 07:29 | 8.09987 | 48.98159 | 31986 ft | 510 kts | 214° |
| 2026-04-24 07:29 | 8.03875 | 48.94444 | 31993 ft | 510 kts | 214° |
| 2026-04-24 07:30 | 7.97785 | 48.90743 | 31994 ft | 510 kts | 214° |
| 2026-04-24 07:30 | 7.91692 | 48.87042 | 31992 ft | 511 kts | 214° |
| 2026-04-24 07:31 | 7.85564 | 48.83321 | 31980 ft | 511 kts | 214° |
| 2026-04-24 07:31 | 7.79485 | 48.79631 | 31979 ft | 511 kts | 214° |
| 2026-04-24 07:32 | 7.73361 | 48.75914 | 31970 ft | 512 kts | 214° |
| 2026-04-24 07:32 | 7.67225 | 48.72192 | 31968 ft | 511 kts | 214° |
| 2026-04-24 07:33 | 7.61121 | 48.68491 | 31955 ft | 512 kts | 214° |
| 2026-04-24 07:33 | 7.55018 | 48.64791 | 31954 ft | 511 kts | 214° |
| 2026-04-24 07:34 | 7.48855 | 48.61057 | 31943 ft | 512 kts | 214° |
| 2026-04-24 07:34 | 7.42720 | 48.57339 | 31939 ft | 514 kts | 214° |
| 2026-04-24 07:35 | 7.36585 | 48.53625 | 31934 ft | 514 kts | 214° |
| 2026-04-24 07:35 | 7.30454 | 48.49880 | 31926 ft | 514 kts | 214° |
| 2026-04-24 07:36 | 7.24344 | 48.46105 | 31924 ft | 513 kts | 214° |
| 2026-04-24 07:36 | 7.18233 | 48.42332 | 31919 ft | 513 kts | 214° |
| 2026-04-24 07:37 | 7.12143 | 48.38574 | 31917 ft | 513 kts | 214° |
| 2026-04-24 07:37 | 7.06061 | 48.34824 | 31914 ft | 514 kts | 214° |
| 2026-04-24 07:38 | 6.99895 | 48.31023 | 31915 ft | 515 kts | 214° |
| 2026-04-24 07:38 | 6.93801 | 48.27269 | 31914 ft | 514 kts | 214° |
| 2026-04-24 07:39 | 6.87643 | 48.23477 | 31908 ft | 514 kts | 214° |
| 2026-04-24 07:39 | 6.81563 | 48.19733 | 31911 ft | 515 kts | 214° |
| 2026-04-24 07:40 | 6.75431 | 48.15959 | 31912 ft | 515 kts | 214° |
| 2026-04-24 07:40 | 6.69340 | 48.12211 | 31905 ft | 514 kts | 214° |
| 2026-04-24 07:41 | 6.63201 | 48.08435 | 31902 ft | 514 kts | 214° |
| 2026-04-24 07:41 | 6.57054 | 48.04655 | 31898 ft | 515 kts | 214° |
| 2026-04-24 07:42 | 6.50972 | 48.00916 | 31893 ft | 515 kts | 214° |
| 2026-04-24 07:42 | 6.44847 | 47.97152 | 31893 ft | 514 kts | 214° |
| 2026-04-24 07:43 | 6.38714 | 47.93384 | 31889 ft | 515 kts | 214° |
| 2026-04-24 07:43 | 6.32571 | 47.89611 | 31887 ft | 515 kts | 214° |
| 2026-04-24 07:44 | 6.26436 | 47.85844 | 31886 ft | 514 kts | 214° |
| 2026-04-24 07:44 | 6.20289 | 47.82070 | 31882 ft | 515 kts | 214° |
| 2026-04-24 07:45 | 6.14190 | 47.78327 | 31879 ft | 514 kts | 214° |
| 2026-04-24 07:45 | 6.08061 | 47.74567 | 31875 ft | 513 kts | 214° |
| 2026-04-24 07:46 | 6.01948 | 47.70817 | 31877 ft | 514 kts | 214° |
| 2026-04-24 07:46 | 5.95820 | 47.67060 | 31876 ft | 513 kts | 213° |
| 2026-04-24 07:47 | 5.89714 | 47.63316 | 31879 ft | 514 kts | 213° |
| 2026-04-24 07:47 | 5.83572 | 47.59552 | 31873 ft | 512 kts | 213° |
| 2026-04-24 07:48 | 5.77453 | 47.55803 | 31873 ft | 512 kts | 213° |
| 2026-04-24 07:48 | 5.71344 | 47.52060 | 31876 ft | 512 kts | 213° |
| 2026-04-24 07:49 | 5.65196 | 47.48296 | 31881 ft | 513 kts | 213° |
| 2026-04-24 07:49 | 5.59031 | 47.44567 | 31884 ft | 512 kts | 213° |
| 2026-04-24 07:50 | 5.52861 | 47.40844 | 31886 ft | 512 kts | 213° |
| 2026-04-24 07:50 | 5.46730 | 47.37144 | 31886 ft | 511 kts | 213° |
| 2026-04-24 07:51 | 5.40633 | 47.33464 | 31888 ft | 512 kts | 213° |
| 2026-04-24 07:51 | 5.34459 | 47.29739 | 31887 ft | 511 kts | 213° |
| 2026-04-24 07:52 | 5.28352 | 47.26054 | 31889 ft | 513 kts | 213° |
| 2026-04-24 07:52 | 5.22185 | 47.22334 | 31886 ft | 512 kts | 213° |
| 2026-04-24 07:53 | 5.16096 | 47.18662 | 31884 ft | 511 kts | 213° |
| 2026-04-24 07:53 | 5.09952 | 47.14958 | 31884 ft | 511 kts | 213° |
| 2026-04-24 07:54 | 5.03818 | 47.11260 | 31882 ft | 511 kts | 213° |
| 2026-04-24 07:54 | 4.97732 | 47.07592 | 31881 ft | 512 kts | 213° |
| 2026-04-24 07:55 | 4.91610 | 47.03903 | 31882 ft | 512 kts | 213° |
| 2026-04-24 07:55 | 4.85438 | 47.00185 | 31876 ft | 512 kts | 213° |
| 2026-04-24 07:56 | 4.79311 | 46.96494 | 31875 ft | 512 kts | 213° |
| 2026-04-24 07:56 | 4.73141 | 46.92779 | 31876 ft | 511 kts | 213° |
| 2026-04-24 07:57 | 4.67176 | 46.89188 | 31878 ft | 511 kts | 213° |
| 2026-04-24 07:57 | 4.61058 | 46.85505 | 31876 ft | 511 kts | 213° |
| 2026-04-24 07:58 | 4.54939 | 46.81823 | 31877 ft | 510 kts | 213° |
| 2026-04-24 07:58 | 4.48794 | 46.78125 | 31877 ft | 511 kts | 213° |
| 2026-04-24 07:59 | 4.42652 | 46.74431 | 31875 ft | 510 kts | 213° |
| 2026-04-24 07:59 | 4.36538 | 46.70753 | 31874 ft | 510 kts | 213° |
| 2026-04-24 08:00 | 4.30430 | 46.67081 | 31875 ft | 511 kts | 213° |
| 2026-04-24 08:00 | 4.24328 | 46.63412 | 31874 ft | 510 kts | 213° |
| 2026-04-24 08:01 | 4.18228 | 46.59745 | 31876 ft | 509 kts | 213° |
| 2026-04-24 08:01 | 4.12113 | 46.56070 | 31878 ft | 510 kts | 213° |
| 2026-04-24 08:02 | 4.06022 | 46.52410 | 31880 ft | 509 kts | 213° |
| 2026-04-24 08:02 | 3.99920 | 46.48744 | 31882 ft | 509 kts | 213° |
| 2026-04-24 08:03 | 3.93814 | 46.45076 | 31884 ft | 508 kts | 213° |
| 2026-04-24 08:03 | 3.87676 | 46.41391 | 31879 ft | 508 kts | 213° |
| 2026-04-24 08:04 | 3.81612 | 46.37749 | 31877 ft | 508 kts | 213° |
| 2026-04-24 08:04 | 3.75532 | 46.34099 | 31878 ft | 508 kts | 213° |
| 2026-04-24 08:05 | 3.69415 | 46.30427 | 31881 ft | 507 kts | 213° |
| 2026-04-24 08:05 | 3.63376 | 46.26802 | 31883 ft | 507 kts | 213° |
| 2026-04-24 08:06 | 3.57325 | 46.23172 | 31887 ft | 507 kts | 213° |
| 2026-04-24 08:06 | 3.51249 | 46.19526 | 31890 ft | 507 kts | 213° |
| 2026-04-24 08:07 | 3.45179 | 46.15884 | 31885 ft | 506 kts | 213° |
| 2026-04-24 08:07 | 3.39149 | 46.12268 | 31891 ft | 506 kts | 213° |
| 2026-04-24 08:08 | 3.33096 | 46.08638 | 31892 ft | 506 kts | 213° |
| 2026-04-24 08:09 | 3.24012 | 46.03191 | 31899 ft | 505 kts | 212° |
| 2026-04-24 08:09 | 3.17998 | 45.99586 | 31903 ft | 506 kts | 212° |
| 2026-04-24 08:10 | 3.11954 | 45.95963 | 31901 ft | 505 kts | 213° |
| 2026-04-24 08:10 | 3.05900 | 45.92334 | 31902 ft | 506 kts | 213° |
| 2026-04-24 08:11 | 2.99872 | 45.88722 | 31899 ft | 505 kts | 213° |
| 2026-04-24 08:11 | 2.93803 | 45.85086 | 31899 ft | 505 kts | 213° |
| 2026-04-24 08:12 | 2.87793 | 45.81485 | 31891 ft | 504 kts | 213° |
| 2026-04-24 08:12 | 2.81750 | 45.77865 | 31891 ft | 504 kts | 213° |
| 2026-04-24 08:13 | 2.75739 | 45.74265 | 31895 ft | 505 kts | 213° |
| 2026-04-24 08:13 | 2.69670 | 45.70631 | 31894 ft | 504 kts | 212° |
| 2026-04-24 08:14 | 2.63662 | 45.67033 | 31889 ft | 504 kts | 213° |
| 2026-04-24 08:14 | 2.57646 | 45.63431 | 31881 ft | 504 kts | 213° |
| 2026-04-24 08:15 | 2.51629 | 45.59829 | 31877 ft | 503 kts | 212° |
| 2026-04-24 08:15 | 2.45587 | 45.56212 | 31871 ft | 504 kts | 213° |
| 2026-04-24 08:16 | 2.39567 | 45.52609 | 31870 ft | 503 kts | 213° |
| 2026-04-24 08:16 | 2.33567 | 45.49018 | 31871 ft | 504 kts | 213° |
| 2026-04-24 08:17 | 2.27528 | 45.45404 | 31868 ft | 504 kts | 212° |
| 2026-04-24 08:17 | 2.21495 | 45.41794 | 31870 ft | 503 kts | 212° |
| 2026-04-24 08:18 | 2.15500 | 45.38207 | 31870 ft | 502 kts | 212° |
| 2026-04-24 08:18 | 2.09521 | 45.34630 | 31863 ft | 502 kts | 212° |
| 2026-04-24 08:19 | 2.03500 | 45.31028 | 31865 ft | 503 kts | 212° |
| 2026-04-24 08:19 | 1.97536 | 45.27331 | 31870 ft | 502 kts | 216° |
| 2026-04-24 08:20 | 1.91768 | 45.23398 | 31865 ft | 502 kts | 216° |
| 2026-04-24 08:20 | 1.85982 | 45.19465 | 31859 ft | 501 kts | 216° |
| 2026-04-24 08:21 | 1.80205 | 45.15552 | 31853 ft | 501 kts | 216° |
| 2026-04-24 08:21 | 1.74428 | 45.11648 | 31849 ft | 501 kts | 216° |
| 2026-04-24 08:22 | 1.68679 | 45.07766 | 31848 ft | 501 kts | 216° |
| 2026-04-24 08:22 | 1.62882 | 45.03856 | 31846 ft | 501 kts | 216° |
| 2026-04-24 08:23 | 1.57090 | 44.99950 | 31846 ft | 501 kts | 216° |
| 2026-04-24 08:23 | 1.51281 | 44.96033 | 31845 ft | 501 kts | 216° |
| 2026-04-24 08:24 | 1.45503 | 44.92137 | 31848 ft | 500 kts | 216° |
| 2026-04-24 08:24 | 1.39744 | 44.88256 | 31846 ft | 500 kts | 216° |
| 2026-04-24 08:25 | 1.33980 | 44.84370 | 31846 ft | 500 kts | 216° |
| 2026-04-24 08:25 | 1.28168 | 44.80453 | 31844 ft | 501 kts | 216° |
| 2026-04-24 08:26 | 1.22390 | 44.76559 | 31846 ft | 501 kts | 216° |
| 2026-04-24 08:26 | 1.16636 | 44.72681 | 31846 ft | 501 kts | 216° |
| 2026-04-24 08:27 | 1.10832 | 44.68771 | 31847 ft | 500 kts | 216° |
| 2026-04-24 08:27 | 1.05082 | 44.64896 | 31847 ft | 500 kts | 216° |
| 2026-04-24 08:28 | 0.99319 | 44.61013 | 31849 ft | 500 kts | 216° |
| 2026-04-24 08:28 | 0.93532 | 44.57114 | 31850 ft | 500 kts | 216° |
| 2026-04-24 08:29 | 0.87748 | 44.53217 | 31847 ft | 501 kts | 216° |
| 2026-04-24 08:29 | 0.81980 | 44.49331 | 31851 ft | 501 kts | 216° |
| 2026-04-24 08:30 | 0.76206 | 44.45441 | 31857 ft | 501 kts | 216° |
| 2026-04-24 08:30 | 0.70409 | 44.41536 | 31863 ft | 500 kts | 216° |
| 2026-04-24 08:31 | 0.64633 | 44.37645 | 31867 ft | 500 kts | 216° |
| 2026-04-24 08:31 | 0.58866 | 44.33760 | 31869 ft | 501 kts | 216° |
| 2026-04-24 08:32 | 0.53050 | 44.29842 | 31867 ft | 501 kts | 215° |
| 2026-04-24 08:32 | 0.47273 | 44.25951 | 31867 ft | 501 kts | 215° |
| 2026-04-24 08:33 | 0.41498 | 44.22061 | 31866 ft | 501 kts | 215° |
| 2026-04-24 08:33 | 0.35684 | 44.18145 | 31867 ft | 501 kts | 216° |
| 2026-04-24 08:34 | 0.29912 | 44.14252 | 31867 ft | 501 kts | 216° |
| 2026-04-24 08:34 | 0.24124 | 44.10335 | 31868 ft | 501 kts | 216° |
| 2026-04-24 08:35 | 0.18376 | 44.06444 | 31864 ft | 501 kts | 216° |
| 2026-04-24 08:35 | 0.12577 | 44.02520 | 31861 ft | 501 kts | 215° |
| 2026-04-24 08:36 | 0.06800 | 43.98610 | 31854 ft | 502 kts | 215° |
| 2026-04-24 08:36 | 0.01026 | 43.94702 | 31850 ft | 501 kts | 215° |
| 2026-04-24 08:37 | -0.04761 | 43.90787 | 31846 ft | 500 kts | 215° |
| 2026-04-24 08:37 | -0.10513 | 43.86895 | 31845 ft | 500 kts | 215° |
| 2026-04-24 08:38 | -0.16279 | 43.82993 | 31847 ft | 500 kts | 216° |
| 2026-04-24 08:38 | -0.22050 | 43.79088 | 31843 ft | 500 kts | 216° |
| 2026-04-24 08:39 | -0.27800 | 43.75196 | 31848 ft | 500 kts | 215° |
| 2026-04-24 08:39 | -0.33583 | 43.71283 | 31846 ft | 500 kts | 216° |
| 2026-04-24 08:40 | -0.39341 | 43.67387 | 31844 ft | 500 kts | 215° |
| 2026-04-24 08:40 | -0.45079 | 43.63504 | 31846 ft | 499 kts | 216° |
| 2026-04-24 08:41 | -0.50828 | 43.59614 | 31846 ft | 499 kts | 216° |
| 2026-04-24 08:41 | -0.56588 | 43.55716 | 31845 ft | 499 kts | 216° |
| 2026-04-24 08:42 | -0.62373 | 43.51801 | 31846 ft | 499 kts | 216° |
| 2026-04-24 08:42 | -0.68108 | 43.47919 | 31846 ft | 499 kts | 216° |
| 2026-04-24 08:43 | -0.73872 | 43.44018 | 31846 ft | 500 kts | 216° |
| 2026-04-24 08:43 | -0.79660 | 43.40101 | 31846 ft | 500 kts | 216° |
| 2026-04-24 08:44 | -0.85406 | 43.36212 | 31847 ft | 499 kts | 216° |
| 2026-04-24 08:44 | -0.91144 | 43.32328 | 31849 ft | 499 kts | 216° |
| 2026-04-24 08:45 | -0.96921 | 43.28417 | 31849 ft | 499 kts | 216° |
| 2026-04-24 08:45 | -1.02682 | 43.24517 | 31849 ft | 500 kts | 216° |
| 2026-04-24 08:46 | -1.08420 | 43.20633 | 31850 ft | 499 kts | 216° |
| 2026-04-24 08:46 | -1.14187 | 43.16729 | 31848 ft | 500 kts | 215° |
| 2026-04-24 08:47 | -1.19958 | 43.12822 | 31847 ft | 500 kts | 215° |
| 2026-04-24 08:47 | -1.25701 | 43.08934 | 31853 ft | 499 kts | 215° |
| 2026-04-24 08:48 | -1.31461 | 43.05034 | 31863 ft | 499 kts | 215° |
| 2026-04-24 08:48 | -1.37225 | 43.01131 | 31868 ft | 499 kts | 215° |
| 2026-04-24 08:49 | -1.42948 | 42.97255 | 31868 ft | 499 kts | 215° |
| 2026-04-24 08:49 | -1.48719 | 42.93347 | 31868 ft | 500 kts | 215° |
| 2026-04-24 08:50 | -1.54498 | 42.89433 | 31868 ft | 499 kts | 215° |
| 2026-04-24 08:50 | -1.60248 | 42.85539 | 31868 ft | 499 kts | 215° |
| 2026-04-24 08:51 | -1.65989 | 42.81650 | 31868 ft | 499 kts | 215° |
| 2026-04-24 08:51 | -1.71772 | 42.77733 | 31869 ft | 499 kts | 215° |
| 2026-04-24 08:52 | -1.77503 | 42.73850 | 31868 ft | 499 kts | 215° |
| 2026-04-24 08:52 | -1.83246 | 42.69960 | 31868 ft | 499 kts | 215° |
| 2026-04-24 08:53 | -1.89017 | 42.66050 | 31869 ft | 500 kts | 216° |
| 2026-04-24 08:53 | -1.94770 | 42.62152 | 31869 ft | 500 kts | 215° |
| 2026-04-24 08:54 | -2.00540 | 42.58241 | 31869 ft | 499 kts | 215° |
| 2026-04-24 08:54 | -2.06280 | 42.54272 | 31869 ft | 500 kts | 216° |
| 2026-04-24 08:55 | -2.11960 | 42.50327 | 31866 ft | 500 kts | 216° |
| 2026-04-24 08:55 | -2.17680 | 42.46357 | 31864 ft | 500 kts | 216° |
| 2026-04-24 08:56 | -2.23381 | 42.42381 | 31858 ft | 499 kts | 217° |
| 2026-04-24 08:56 | -2.28972 | 42.38248 | 31859 ft | 498 kts | 218° |
| 2026-04-24 08:57 | -2.34574 | 42.34100 | 31863 ft | 498 kts | 218° |
| 2026-04-24 08:57 | -2.40151 | 42.29977 | 31866 ft | 498 kts | 218° |
| 2026-04-24 08:58 | -2.45721 | 42.25864 | 31862 ft | 499 kts | 218° |
| 2026-04-24 08:58 | -2.51318 | 42.21733 | 31857 ft | 499 kts | 218° |
| 2026-04-24 08:59 | -2.56912 | 42.17605 | 31851 ft | 500 kts | 218° |
| 2026-04-24 08:59 | -2.62489 | 42.13490 | 31849 ft | 500 kts | 218° |
| 2026-04-24 09:00 | -2.68106 | 42.09345 | 31850 ft | 498 kts | 218° |
| 2026-04-24 09:00 | -2.73664 | 42.05244 | 31848 ft | 498 kts | 218° |
| 2026-04-24 09:01 | -2.79254 | 42.01118 | 31847 ft | 497 kts | 218° |
| 2026-04-24 09:01 | -2.84827 | 41.97005 | 31850 ft | 498 kts | 218° |
| 2026-04-24 09:02 | -2.90417 | 41.92878 | 31850 ft | 498 kts | 218° |
| 2026-04-24 09:02 | -2.95984 | 41.88768 | 31856 ft | 498 kts | 217° |
| 2026-04-24 09:03 | -3.01558 | 41.84652 | 31866 ft | 497 kts | 218° |
| 2026-04-24 09:03 | -3.07139 | 41.80531 | 31875 ft | 497 kts | 218° |
| 2026-04-24 09:04 | -3.12681 | 41.76438 | 31874 ft | 497 kts | 218° |
| 2026-04-24 09:04 | -3.18254 | 41.72322 | 31873 ft | 497 kts | 218° |
| 2026-04-24 09:05 | -3.23830 | 41.68202 | 31873 ft | 497 kts | 218° |
| 2026-04-24 09:05 | -3.29390 | 41.64093 | 31875 ft | 497 kts | 218° |
| 2026-04-24 09:06 | -3.34942 | 41.59991 | 31875 ft | 497 kts | 217° |
| 2026-04-24 09:06 | -3.40513 | 41.55873 | 31870 ft | 497 kts | 218° |
| 2026-04-24 09:07 | -3.46092 | 41.51749 | 31861 ft | 499 kts | 218° |
| 2026-04-24 09:07 | -3.54483 | 41.45546 | 31859 ft | 499 kts | 217° |
| 2026-04-24 09:08 | -3.60041 | 41.41436 | 31859 ft | 498 kts | 217° |
| 2026-04-24 09:08 | -3.65623 | 41.37307 | 31862 ft | 498 kts | 217° |
| 2026-04-24 09:09 | -3.71241 | 41.33152 | 31864 ft | 498 kts | 218° |
| 2026-04-24 09:09 | -3.76802 | 41.29038 | 31865 ft | 498 kts | 218° |
| 2026-04-24 09:10 | -3.82398 | 41.24897 | 31868 ft | 498 kts | 218° |
| 2026-04-24 09:10 | -3.87953 | 41.20786 | 31870 ft | 499 kts | 218° |
| 2026-04-24 09:11 | -3.93563 | 41.16633 | 31869 ft | 499 kts | 218° |
| 2026-04-24 09:11 | -3.99140 | 41.12528 | 31864 ft | 499 kts | 215° |
| 2026-04-24 09:12 | -4.05054 | 41.08856 | 31870 ft | 499 kts | 212° |
| 2026-04-24 09:12 | -4.11005 | 41.05239 | 31870 ft | 500 kts | 212° |
| 2026-04-24 09:13 | -4.16966 | 41.01611 | 31872 ft | 500 kts | 212° |
| 2026-04-24 09:13 | -4.22907 | 40.97992 | 31873 ft | 499 kts | 212° |
| 2026-04-24 09:14 | -4.28829 | 40.94383 | 31867 ft | 498 kts | 212° |
| 2026-04-24 09:14 | -4.34750 | 40.90772 | 31875 ft | 499 kts | 212° |
| 2026-04-24 09:15 | -4.40694 | 40.87147 | 31877 ft | 498 kts | 212° |
| 2026-04-24 09:15 | -4.46618 | 40.83534 | 31879 ft | 498 kts | 212° |
| 2026-04-24 09:16 | -4.52555 | 40.79910 | 31882 ft | 499 kts | 212° |
| 2026-04-24 09:16 | -4.58510 | 40.76276 | 31881 ft | 499 kts | 212° |
| 2026-04-24 09:17 | -4.64424 | 40.72666 | 31882 ft | 500 kts | 212° |
| 2026-04-24 09:17 | -4.70411 | 40.69010 | 31888 ft | 500 kts | 212° |
| 2026-04-24 09:18 | -4.76341 | 40.65389 | 31887 ft | 501 kts | 212° |
| 2026-04-24 09:18 | -4.82254 | 40.61698 | 31875 ft | 499 kts | 216° |
| 2026-04-24 09:19 | -4.87739 | 40.57450 | 31870 ft | 499 kts | 219° |
| 2026-04-24 09:19 | -4.93229 | 40.53125 | 31870 ft | 499 kts | 218° |
| 2026-04-24 09:20 | -4.98686 | 40.48828 | 31869 ft | 499 kts | 218° |
| 2026-04-24 09:20 | -5.04139 | 40.44535 | 31869 ft | 500 kts | 219° |
| 2026-04-24 09:21 | -5.09636 | 40.40208 | 31870 ft | 500 kts | 218° |
| 2026-04-24 09:21 | -5.15217 | 40.36044 | 31877 ft | 500 kts | 213° |
| 2026-04-24 09:22 | -5.21048 | 40.32219 | 31877 ft | 499 kts | 213° |
| 2026-04-24 09:22 | -5.26848 | 40.28390 | 31879 ft | 500 kts | 213° |
| 2026-04-24 09:23 | -5.32649 | 40.24539 | 31877 ft | 500 kts | 213° |
| 2026-04-24 09:23 | -5.38458 | 40.20671 | 31878 ft | 499 kts | 213° |
| 2026-04-24 09:24 | -5.44221 | 40.16827 | 31881 ft | 500 kts | 213° |
| 2026-04-24 09:24 | -5.50047 | 40.12936 | 31882 ft | 500 kts | 213° |
| 2026-04-24 09:25 | -5.55804 | 40.09089 | 31886 ft | 499 kts | 213° |
| 2026-04-24 09:25 | -5.61592 | 40.05219 | 31887 ft | 498 kts | 213° |
| 2026-04-24 09:26 | -5.67370 | 40.01354 | 31889 ft | 499 kts | 213° |
| 2026-04-24 09:26 | -5.73187 | 39.97462 | 31890 ft | 499 kts | 213° |
| 2026-04-24 09:27 | -5.78970 | 39.93592 | 31889 ft | 499 kts | 213° |
| 2026-04-24 09:27 | -5.84723 | 39.89740 | 31890 ft | 498 kts | 213° |
| 2026-04-24 09:28 | -5.90501 | 39.85871 | 31890 ft | 499 kts | 213° |
| 2026-04-24 09:28 | -5.96258 | 39.82015 | 31890 ft | 498 kts | 213° |
| 2026-04-24 09:29 | -6.02048 | 39.78136 | 31889 ft | 498 kts | 213° |
| 2026-04-24 09:29 | -6.07819 | 39.74269 | 31890 ft | 497 kts | 213° |
| 2026-04-24 09:30 | -6.13562 | 39.70419 | 31890 ft | 496 kts | 213° |
| 2026-04-24 09:30 | -6.19308 | 39.66567 | 31891 ft | 498 kts | 213° |
| 2026-04-24 09:31 | -6.25099 | 39.62683 | 31892 ft | 498 kts | 213° |
| 2026-04-24 09:31 | -6.30833 | 39.58796 | 31892 ft | 497 kts | 213° |
| 2026-04-24 09:32 | -6.36527 | 39.54915 | 31893 ft | 496 kts | 213° |
| 2026-04-24 09:32 | -6.42272 | 39.51001 | 31888 ft | 496 kts | 213° |
| 2026-04-24 09:33 | -6.48000 | 39.47097 | 31888 ft | 495 kts | 213° |
| 2026-04-24 09:33 | -6.53674 | 39.43231 | 31886 ft | 496 kts | 213° |
| 2026-04-24 09:34 | -6.59382 | 39.39340 | 31887 ft | 496 kts | 213° |
| 2026-04-24 09:34 | -6.65094 | 39.35446 | 31889 ft | 496 kts | 213° |
| 2026-04-24 09:35 | -6.70856 | 39.31517 | 31887 ft | 497 kts | 214° |
| 2026-04-24 09:35 | -6.76585 | 39.27609 | 31891 ft | 496 kts | 213° |
| 2026-04-24 09:36 | -6.82273 | 39.23728 | 31902 ft | 495 kts | 214° |
| 2026-04-24 09:36 | -6.87968 | 39.19841 | 31908 ft | 494 kts | 213° |
| 2026-04-24 09:37 | -6.93532 | 39.15774 | 31912 ft | 494 kts | 217° |
| 2026-04-24 09:37 | -6.99038 | 39.11561 | 31913 ft | 495 kts | 217° |
| 2026-04-24 09:38 | -7.04546 | 39.07362 | 31913 ft | 496 kts | 217° |
| 2026-04-24 09:38 | -7.10039 | 39.03183 | 31917 ft | 496 kts | 217° |
| 2026-04-24 09:39 | -7.15562 | 38.98985 | 31915 ft | 495 kts | 217° |
| 2026-04-24 09:39 | -7.21044 | 38.94820 | 31918 ft | 494 kts | 217° |
| 2026-04-24 09:40 | -7.26544 | 38.90642 | 31923 ft | 493 kts | 217° |
| 2026-04-24 09:40 | -7.32022 | 38.86480 | 31924 ft | 495 kts | 216° |
| 2026-04-24 09:41 | -7.37545 | 38.82283 | 31925 ft | 496 kts | 216° |
| 2026-04-24 09:41 | -7.43058 | 38.78093 | 31926 ft | 496 kts | 216° |
| 2026-04-24 09:42 | -7.48528 | 38.73934 | 31923 ft | 495 kts | 216° |
| 2026-04-24 09:42 | -7.54042 | 38.69741 | 31919 ft | 495 kts | 217° |
| 2026-04-24 09:43 | -7.59531 | 38.65565 | 31918 ft | 495 kts | 216° |
| 2026-04-24 09:43 | -7.65036 | 38.61375 | 31917 ft | 495 kts | 216° |
| 2026-04-24 09:44 | -7.70567 | 38.57165 | 31917 ft | 495 kts | 216° |
| 2026-04-24 09:44 | -7.76055 | 38.52986 | 31915 ft | 495 kts | 216° |
| 2026-04-24 09:45 | -7.81568 | 38.48786 | 31915 ft | 495 kts | 216° |
| 2026-04-24 09:45 | -7.87029 | 38.44625 | 31916 ft | 495 kts | 216° |
| 2026-04-24 09:46 | -7.92521 | 38.40438 | 31915 ft | 495 kts | 216° |
| 2026-04-24 09:46 | -7.98042 | 38.36228 | 31919 ft | 495 kts | 216° |
| 2026-04-24 09:47 | -8.03537 | 38.32037 | 31918 ft | 495 kts | 216° |
| 2026-04-24 09:47 | -8.09046 | 38.27833 | 31917 ft | 495 kts | 216° |
| 2026-04-24 09:48 | -8.14546 | 38.23634 | 31924 ft | 495 kts | 216° |
| 2026-04-24 09:48 | -8.20031 | 38.19446 | 31922 ft | 495 kts | 216° |
| 2026-04-24 09:49 | -8.25537 | 38.15239 | 31930 ft | 494 kts | 216° |
| 2026-04-24 09:49 | -8.31014 | 38.11050 | 31941 ft | 494 kts | 216° |
| 2026-04-24 09:50 | -8.36505 | 38.06850 | 31947 ft | 494 kts | 216° |
| 2026-04-24 09:50 | -8.41970 | 38.02669 | 31963 ft | 495 kts | 216° |
| 2026-04-24 09:51 | -8.47490 | 37.98443 | 31974 ft | 496 kts | 216° |
| 2026-04-24 09:51 | -8.52976 | 37.94242 | 31987 ft | 495 kts | 216° |
| 2026-04-24 09:52 | -8.58463 | 37.90039 | 31994 ft | 495 kts | 216° |
| 2026-04-24 09:52 | -8.63974 | 37.85816 | 31996 ft | 495 kts | 216° |
| 2026-04-24 09:53 | -8.69448 | 37.81619 | 31994 ft | 495 kts | 216° |
| 2026-04-24 09:53 | -8.74939 | 37.77408 | 31990 ft | 495 kts | 216° |
| 2026-04-24 09:54 | -8.80442 | 37.73187 | 31993 ft | 495 kts | 216° |
| 2026-04-24 09:54 | -8.85935 | 37.68971 | 31992 ft | 495 kts | 216° |
| 2026-04-24 09:55 | -8.91361 | 37.64805 | 31995 ft | 494 kts | 216° |
| 2026-04-24 09:55 | -8.96573 | 37.60802 | 32004 ft | 495 kts | 216° |
| 2026-04-24 09:56 | -9.02056 | 37.56589 | 32005 ft | 494 kts | 216° |
| 2026-04-24 09:56 | -9.07564 | 37.52355 | 32006 ft | 495 kts | 216° |
| 2026-04-24 09:57 | -9.13051 | 37.48136 | 32012 ft | 494 kts | 216° |
| 2026-04-24 09:57 | -9.18533 | 37.43918 | 32001 ft | 495 kts | 216° |
| 2026-04-24 09:58 | -9.24015 | 37.39700 | 31993 ft | 494 kts | 216° |
| 2026-04-24 09:58 | -9.29496 | 37.35480 | 31997 ft | 495 kts | 216° |
| 2026-04-24 09:59 | -9.34967 | 37.31267 | 31997 ft | 495 kts | 216° |
| 2026-04-24 09:59 | -9.40470 | 37.27027 | 31991 ft | 494 kts | 216° |
| 2026-04-24 10:00 | -9.45926 | 37.22821 | 32000 ft | 493 kts | 216° |
| 2026-04-24 10:00 | -9.51393 | 37.18605 | 32007 ft | 494 kts | 216° |
| 2026-04-24 10:01 | -9.56872 | 37.14379 | 32012 ft | 495 kts | 216° |
| 2026-04-24 10:01 | -9.62354 | 37.10148 | 32015 ft | 494 kts | 216° |
| 2026-04-24 10:02 | -9.67839 | 37.05913 | 32015 ft | 494 kts | 216° |
| 2026-04-24 10:02 | -9.73293 | 37.01699 | 32017 ft | 493 kts | 216° |
| 2026-04-24 10:03 | -9.78782 | 36.97458 | 32023 ft | 493 kts | 216° |
| 2026-04-24 10:03 | -9.84221 | 36.93254 | 32024 ft | 495 kts | 216° |
| 2026-04-24 10:04 | -9.89731 | 36.88992 | 32034 ft | 495 kts | 216° |
| 2026-04-24 10:04 | -9.95183 | 36.84774 | 32038 ft | 495 kts | 216° |
| 2026-04-24 10:05 | -10.00679 | 36.80519 | 32041 ft | 495 kts | 216° |
| 2026-04-24 10:05 | -10.06149 | 36.76283 | 32048 ft | 493 kts | 216° |
| 2026-04-24 10:06 | -10.14321 | 36.69951 | 32057 ft | 493 kts | 216° |
| 2026-04-24 10:07 | -10.19771 | 36.65727 | 32064 ft | 492 kts | 216° |
| 2026-04-24 10:07 | -10.25212 | 36.61506 | 32072 ft | 492 kts | 216° |
| 2026-04-24 10:08 | -10.30641 | 36.57293 | 32081 ft | 491 kts | 216° |
| 2026-04-24 10:08 | -10.36074 | 36.53075 | 32084 ft | 491 kts | 216° |
| 2026-04-24 10:09 | -10.41526 | 36.48842 | 32085 ft | 490 kts | 216° |
| 2026-04-24 10:09 | -10.46954 | 36.44624 | 32083 ft | 490 kts | 216° |
| 2026-04-24 10:10 | -10.52343 | 36.40435 | 32082 ft | 490 kts | 216° |
| 2026-04-24 10:10 | -10.57790 | 36.36199 | 32080 ft | 489 kts | 216° |
| 2026-04-24 10:11 | -10.63182 | 36.32004 | 32078 ft | 488 kts | 216° |
| 2026-04-24 10:11 | -10.68593 | 36.27792 | 32076 ft | 488 kts | 216° |
| 2026-04-24 10:12 | -10.73981 | 36.23596 | 32076 ft | 488 kts | 216° |
| 2026-04-24 10:12 | -10.79354 | 36.19410 | 32077 ft | 487 kts | 216° |
| 2026-04-24 10:13 | -10.84751 | 36.15203 | 32077 ft | 488 kts | 216° |
| 2026-04-24 10:13 | -10.90113 | 36.11021 | 32069 ft | 486 kts | 216° |
| 2026-04-24 10:14 | -10.95496 | 36.06821 | 32060 ft | 485 kts | 216° |
| 2026-04-24 10:14 | -11.00842 | 36.02649 | 32050 ft | 486 kts | 216° |
| 2026-04-24 10:15 | -11.06220 | 35.98449 | 32047 ft | 486 kts | 216° |
| 2026-04-24 10:15 | -11.11579 | 35.94262 | 32063 ft | 486 kts | 216° |
| 2026-04-24 10:16 | -11.16958 | 35.90057 | 32060 ft | 485 kts | 216° |
| 2026-04-24 10:16 | -11.22285 | 35.85891 | 32070 ft | 485 kts | 216° |
| 2026-04-24 10:17 | -11.27643 | 35.81699 | 32071 ft | 486 kts | 216° |
| 2026-04-24 10:17 | -11.33002 | 35.77504 | 32074 ft | 485 kts | 216° |
| 2026-04-24 10:18 | -11.38375 | 35.73295 | 32073 ft | 486 kts | 216° |
| 2026-04-24 10:18 | -11.43728 | 35.69101 | 32074 ft | 486 kts | 216° |
| 2026-04-24 10:19 | -11.49082 | 35.64904 | 32069 ft | 486 kts | 216° |
| 2026-04-24 10:19 | -11.54468 | 35.60679 | 32069 ft | 486 kts | 216° |
| 2026-04-24 10:20 | -11.59829 | 35.56473 | 32061 ft | 486 kts | 216° |
| 2026-04-24 10:20 | -11.65171 | 35.52229 | 32071 ft | 486 kts | 217° |
| 2026-04-24 10:21 | -11.70482 | 35.47979 | 32079 ft | 486 kts | 217° |
| 2026-04-24 10:21 | -11.75818 | 35.43710 | 32080 ft | 486 kts | 217° |
| 2026-04-24 10:22 | -11.81113 | 35.39473 | 32069 ft | 485 kts | 217° |
| 2026-04-24 10:22 | -11.86442 | 35.35208 | 32066 ft | 483 kts | 217° |
| 2026-04-24 10:23 | -11.91714 | 35.30985 | 32073 ft | 482 kts | 217° |
| 2026-04-24 10:23 | -11.96971 | 35.26774 | 32075 ft | 483 kts | 217° |
| 2026-04-24 10:24 | -12.02258 | 35.22537 | 32074 ft | 483 kts | 217° |
| 2026-04-24 10:24 | -12.07547 | 35.18295 | 32085 ft | 483 kts | 217° |
| 2026-04-24 10:25 | -12.12843 | 35.14046 | 32096 ft | 484 kts | 217° |
| 2026-04-24 10:25 | -12.18136 | 35.09797 | 32093 ft | 483 kts | 217° |
| 2026-04-24 10:26 | -12.23440 | 35.05536 | 32090 ft | 482 kts | 217° |
| 2026-04-24 10:26 | -12.28695 | 35.01313 | 32084 ft | 482 kts | 217° |
| 2026-04-24 10:27 | -12.33963 | 34.97078 | 32078 ft | 481 kts | 217° |
| 2026-04-24 10:27 | -12.39246 | 34.92828 | 32074 ft | 482 kts | 217° |
| 2026-04-24 10:28 | -12.44513 | 34.88589 | 32073 ft | 482 kts | 217° |
| 2026-04-24 10:28 | -12.49818 | 34.84317 | 32067 ft | 482 kts | 217° |
| 2026-04-24 10:29 | -12.55059 | 34.80094 | 32070 ft | 481 kts | 217° |
| 2026-04-24 10:29 | -12.60329 | 34.75846 | 32064 ft | 482 kts | 217° |
| 2026-04-24 10:30 | -12.65670 | 34.71711 | 32059 ft | 481 kts | 216° |
| 2026-04-24 10:30 | -12.71039 | 34.67584 | 32058 ft | 481 kts | 216° |
| 2026-04-24 10:31 | -12.76362 | 34.63484 | 32057 ft | 480 kts | 216° |
| 2026-04-24 10:31 | -12.81696 | 34.59370 | 32058 ft | 481 kts | 216° |
| 2026-04-24 10:32 | -12.87045 | 34.55240 | 32058 ft | 480 kts | 216° |
| 2026-04-24 10:32 | -12.92375 | 34.51121 | 32058 ft | 480 kts | 216° |
| 2026-04-24 10:33 | -12.97704 | 34.47001 | 32058 ft | 478 kts | 216° |
| 2026-04-24 10:33 | -13.03018 | 34.42889 | 32059 ft | 479 kts | 216° |
| 2026-04-24 10:34 | -13.08371 | 34.38746 | 32060 ft | 479 kts | 216° |
| 2026-04-24 10:34 | -13.13658 | 34.34650 | 32065 ft | 479 kts | 216° |
| 2026-04-24 10:35 | -13.18965 | 34.30479 | 32065 ft | 479 kts | 217° |
| 2026-04-24 10:35 | -13.24243 | 34.26263 | 32064 ft | 479 kts | 217° |
| 2026-04-24 10:36 | -13.29476 | 34.22084 | 32067 ft | 478 kts | 217° |
| 2026-04-24 10:36 | -13.34732 | 34.17888 | 32082 ft | 478 kts | 217° |
| 2026-04-24 10:37 | -13.39991 | 34.13688 | 32100 ft | 477 kts | 217° |
| 2026-04-24 10:37 | -13.45235 | 34.09499 | 32116 ft | 477 kts | 217° |
| 2026-04-24 10:38 | -13.50462 | 34.05322 | 32124 ft | 476 kts | 217° |
| 2026-04-24 10:38 | -13.55677 | 34.01151 | 32139 ft | 475 kts | 217° |
| 2026-04-24 10:39 | -13.60881 | 33.96987 | 32147 ft | 476 kts | 217° |
| 2026-04-24 10:39 | -13.66114 | 33.92798 | 32153 ft | 476 kts | 217° |
| 2026-04-24 10:40 | -13.71351 | 33.88603 | 32164 ft | 477 kts | 217° |
| 2026-04-24 10:40 | -13.76593 | 33.84401 | 32173 ft | 476 kts | 217° |
| 2026-04-24 10:41 | -13.81881 | 33.80286 | 32175 ft | 476 kts | 213° |
| 2026-04-24 10:41 | -13.87478 | 33.76654 | 32173 ft | 476 kts | 212° |
| 2026-04-24 10:42 | -13.93091 | 33.73037 | 32157 ft | 475 kts | 212° |
| 2026-04-24 10:42 | -13.98704 | 33.69416 | 32151 ft | 475 kts | 212° |
| 2026-04-24 10:43 | -14.04315 | 33.65791 | 32146 ft | 476 kts | 212° |
| 2026-04-24 10:43 | -14.09907 | 33.62176 | 32150 ft | 475 kts | 212° |
| 2026-04-24 10:44 | -14.15531 | 33.58538 | 32157 ft | 475 kts | 212° |
| 2026-04-24 10:44 | -14.21113 | 33.54923 | 32158 ft | 475 kts | 212° |
| 2026-04-24 10:45 | -14.26712 | 33.51297 | 32156 ft | 475 kts | 212° |
| 2026-04-24 10:45 | -14.32319 | 33.47662 | 32153 ft | 475 kts | 212° |
| 2026-04-24 10:46 | -14.37921 | 33.44028 | 32155 ft | 474 kts | 212° |
| 2026-04-24 10:46 | -14.43522 | 33.40393 | 32152 ft | 475 kts | 212° |
| 2026-04-24 10:47 | -14.49103 | 33.36768 | 32149 ft | 475 kts | 212° |
| 2026-04-24 10:47 | -14.54716 | 33.33143 | 32146 ft | 474 kts | 212° |
| 2026-04-24 10:48 | -14.60323 | 33.29563 | 32137 ft | 474 kts | 212° |
| 2026-04-24 10:48 | -14.65944 | 33.25969 | 32115 ft | 473 kts | 212° |
| 2026-04-24 10:49 | -14.71535 | 33.22391 | 32104 ft | 473 kts | 212° |
| 2026-04-24 10:49 | -14.77165 | 33.18785 | 32093 ft | 472 kts | 212° |
| 2026-04-24 10:50 | -14.82760 | 33.15199 | 32095 ft | 473 kts | 212° |
| 2026-04-24 10:50 | -14.88341 | 33.11620 | 32091 ft | 472 kts | 212° |
| 2026-04-24 10:51 | -14.93910 | 33.08046 | 32082 ft | 472 kts | 212° |
| 2026-04-24 10:51 | -14.99626 | 33.04583 | 32068 ft | 474 kts | 210° |
| 2026-04-24 10:52 | -15.05353 | 33.01220 | 32060 ft | 473 kts | 210° |
| 2026-04-24 10:52 | -15.11091 | 32.97836 | 32055 ft | 473 kts | 210° |
| 2026-04-24 10:53 | -15.16821 | 32.94450 | 32055 ft | 472 kts | 210° |
| 2026-04-24 10:53 | -15.22512 | 32.91081 | 32056 ft | 472 kts | 210° |
| 2026-04-24 10:54 | -15.28233 | 32.87690 | 32056 ft | 472 kts | 210° |
| 2026-04-24 10:54 | -15.33921 | 32.84316 | 32055 ft | 473 kts | 211° |
| 2026-04-24 10:55 | -15.39609 | 32.80939 | 32063 ft | 471 kts | 211° |
| 2026-04-24 10:55 | -15.45328 | 32.77541 | 32069 ft | 472 kts | 211° |
| 2026-04-24 10:56 | -15.51032 | 32.74150 | 32076 ft | 472 kts | 211° |
| 2026-04-24 10:56 | -15.56717 | 32.70768 | 32068 ft | 472 kts | 211° |
| 2026-04-24 10:57 | -15.62234 | 32.67088 | 32065 ft | 471 kts | 215° |
| 2026-04-24 10:57 | -15.67650 | 32.63253 | 32064 ft | 472 kts | 215° |
| 2026-04-24 10:58 | -15.73093 | 32.59423 | 32054 ft | 471 kts | 215° |
| 2026-04-24 10:58 | -15.78514 | 32.55620 | 32053 ft | 471 kts | 215° |
| 2026-04-24 10:59 | -15.83950 | 32.51812 | 32056 ft | 470 kts | 215° |
| 2026-04-24 10:59 | -15.89388 | 32.48004 | 32056 ft | 471 kts | 215° |
| 2026-04-24 11:00 | -15.94791 | 32.44220 | 32057 ft | 471 kts | 215° |
| 2026-04-24 11:00 | -16.00228 | 32.40411 | 32049 ft | 470 kts | 215° |
| 2026-04-24 11:01 | -16.05671 | 32.36595 | 32047 ft | 471 kts | 215° |
| 2026-04-24 11:01 | -16.11077 | 32.32804 | 32054 ft | 470 kts | 216° |
| 2026-04-24 11:02 | -16.16526 | 32.28979 | 32057 ft | 471 kts | 215° |
| 2026-04-24 11:02 | -16.21942 | 32.25176 | 32060 ft | 469 kts | 216° |
| 2026-04-24 11:03 | -16.27366 | 32.21364 | 32072 ft | 470 kts | 216° |
| 2026-04-24 11:03 | -16.32762 | 32.17570 | 32077 ft | 469 kts | 216° |
| 2026-04-24 11:04 | -16.38190 | 32.13750 | 32090 ft | 468 kts | 216° |
| 2026-04-24 11:04 | -16.43586 | 32.09954 | 32092 ft | 468 kts | 215° |
| 2026-04-24 11:05 | -16.49089 | 32.06311 | 32106 ft | 468 kts | 214° |
| 2026-04-24 11:05 | -16.54588 | 32.02691 | 32107 ft | 467 kts | 214° |
| 2026-04-24 11:06 | -16.60087 | 31.99061 | 32117 ft | 468 kts | 214° |
| 2026-04-24 11:06 | -16.65591 | 31.95421 | 32117 ft | 468 kts | 214° |
| 2026-04-24 11:07 | -16.73822 | 31.89968 | 32128 ft | 466 kts | 214° |
| 2026-04-24 11:07 | -16.79312 | 31.86327 | 32133 ft | 466 kts | 214° |
| 2026-04-24 11:08 | -16.84800 | 31.82684 | 32136 ft | 466 kts | 214° |
| 2026-04-24 11:08 | -16.90247 | 31.79065 | 32142 ft | 465 kts | 215° |
| 2026-04-24 11:09 | -16.95719 | 31.75428 | 32130 ft | 465 kts | 215° |
| 2026-04-24 11:09 | -17.01172 | 31.71800 | 32140 ft | 465 kts | 215° |
| 2026-04-24 11:10 | -17.06634 | 31.68163 | 32153 ft | 465 kts | 215° |
| 2026-04-24 11:10 | -17.12092 | 31.64528 | 32169 ft | 465 kts | 215° |
| 2026-04-24 11:11 | -17.17547 | 31.60891 | 32177 ft | 464 kts | 215° |
| 2026-04-24 11:11 | -17.23025 | 31.57236 | 32165 ft | 466 kts | 215° |
| 2026-04-24 11:12 | -17.28491 | 31.53586 | 32176 ft | 465 kts | 215° |
| 2026-04-24 11:12 | -17.33948 | 31.49941 | 32183 ft | 464 kts | 216° |
| 2026-04-24 11:13 | -17.39396 | 31.46298 | 32194 ft | 465 kts | 215° |
| 2026-04-24 11:13 | -17.44822 | 31.42668 | 32199 ft | 464 kts | 216° |
| 2026-04-24 11:14 | -17.50290 | 31.39007 | 32223 ft | 464 kts | 216° |
| 2026-04-24 11:14 | -17.55722 | 31.35367 | 32228 ft | 465 kts | 216° |
| 2026-04-24 11:15 | -17.61175 | 31.31711 | 32235 ft | 464 kts | 216° |
| 2026-04-24 11:15 | -17.66616 | 31.28060 | 32243 ft | 464 kts | 216° |
| 2026-04-24 11:16 | -17.72061 | 31.24404 | 32236 ft | 464 kts | 216° |
| 2026-04-24 11:16 | -17.77495 | 31.20752 | 32253 ft | 464 kts | 216° |
| 2026-04-24 11:17 | -17.82955 | 31.17080 | 32247 ft | 464 kts | 216° |
| 2026-04-24 11:17 | -17.88364 | 31.13420 | 32254 ft | 465 kts | 219° |
| 2026-04-24 11:18 | -17.93048 | 31.08854 | 32264 ft | 459 kts | 233° |
| 2026-04-24 11:18 | -17.97137 | 31.03688 | 32251 ft | 457 kts | 233° |
| 2026-04-24 11:19 | -18.01161 | 30.98574 | 32249 ft | 455 kts | 233° |
| 2026-04-24 11:19 | -18.05206 | 30.93427 | 32250 ft | 457 kts | 233° |
| 2026-04-24 11:20 | -18.09237 | 30.88293 | 32243 ft | 455 kts | 233° |
| 2026-04-24 11:20 | -18.13249 | 30.83178 | 32240 ft | 454 kts | 233° |
| 2026-04-24 11:21 | -18.17279 | 30.78036 | 32235 ft | 456 kts | 233° |
| 2026-04-24 11:21 | -18.21316 | 30.72880 | 32241 ft | 457 kts | 233° |
| 2026-04-24 11:22 | -18.25354 | 30.67718 | 32229 ft | 456 kts | 233° |
| 2026-04-24 11:22 | -18.29383 | 30.62565 | 32228 ft | 458 kts | 234° |
| 2026-04-24 11:23 | -18.33424 | 30.57392 | 32230 ft | 455 kts | 233° |
| 2026-04-24 11:23 | -18.37434 | 30.52253 | 32225 ft | 457 kts | 234° |
| 2026-04-24 11:24 | -18.41479 | 30.47067 | 32220 ft | 455 kts | 234° |
| 2026-04-24 11:24 | -18.45472 | 30.41942 | 32225 ft | 456 kts | 234° |
| 2026-04-24 11:25 | -18.49477 | 30.36799 | 32218 ft | 454 kts | 234° |
| 2026-04-24 11:25 | -18.53502 | 30.31624 | 32233 ft | 455 kts | 234° |
| 2026-04-24 11:26 | -18.57490 | 30.26494 | 32223 ft | 452 kts | 234° |
| 2026-04-24 11:26 | -18.61469 | 30.21370 | 32217 ft | 455 kts | 234° |
| 2026-04-24 11:27 | -18.65501 | 30.16220 | 32220 ft | 455 kts | 234° |
| 2026-04-24 11:27 | -18.69545 | 30.11073 | 32222 ft | 455 kts | 234° |
| 2026-04-24 11:28 | -18.73576 | 30.05936 | 32221 ft | 454 kts | 234° |
| 2026-04-24 11:28 | -18.77597 | 30.00806 | 32225 ft | 455 kts | 234° |
| 2026-04-24 11:29 | -18.81630 | 29.95657 | 32222 ft | 456 kts | 234° |
| 2026-04-24 11:29 | -18.85637 | 29.90535 | 32218 ft | 453 kts | 234° |
| 2026-04-24 11:30 | -18.89659 | 29.85391 | 32218 ft | 453 kts | 234° |
| 2026-04-24 11:30 | -18.93686 | 29.80305 | 32219 ft | 455 kts | 231° |
| 2026-04-24 11:31 | -18.98183 | 29.75532 | 32230 ft | 455 kts | 229° |
| 2026-04-24 11:31 | -19.02682 | 29.70809 | 32233 ft | 457 kts | 229° |
| 2026-04-24 11:32 | -19.07178 | 29.66081 | 32230 ft | 455 kts | 229° |
| 2026-04-24 11:32 | -19.11651 | 29.61372 | 32232 ft | 455 kts | 229° |
| 2026-04-24 11:33 | -19.16130 | 29.56651 | 32233 ft | 456 kts | 229° |
| 2026-04-24 11:33 | -19.20627 | 29.51906 | 32224 ft | 457 kts | 230° |
| 2026-04-24 11:34 | -19.25111 | 29.47172 | 32224 ft | 454 kts | 230° |
| 2026-04-24 11:34 | -19.29577 | 29.42451 | 32221 ft | 456 kts | 230° |
| 2026-04-24 11:35 | -19.34049 | 29.37723 | 32221 ft | 454 kts | 230° |
| 2026-04-24 11:35 | -19.38508 | 29.33001 | 32231 ft | 453 kts | 230° |
| 2026-04-24 11:36 | -19.42984 | 29.28259 | 32237 ft | 454 kts | 230° |
| 2026-04-24 11:36 | -19.47434 | 29.23540 | 32239 ft | 452 kts | 230° |
| 2026-04-24 11:37 | -19.51883 | 29.18820 | 32241 ft | 451 kts | 230° |
| 2026-04-24 11:37 | -19.56331 | 29.14094 | 32241 ft | 452 kts | 230° |
| 2026-04-24 11:38 | -19.60756 | 29.09391 | 32240 ft | 450 kts | 230° |
| 2026-04-24 11:38 | -19.65200 | 29.04663 | 32246 ft | 451 kts | 230° |
| 2026-04-24 11:39 | -19.69614 | 28.99963 | 32248 ft | 452 kts | 230° |
| 2026-04-24 11:39 | -19.74046 | 28.95239 | 32252 ft | 451 kts | 230° |
| 2026-04-24 11:40 | -19.78482 | 28.90509 | 32247 ft | 452 kts | 231° |
| 2026-04-24 11:40 | -19.82920 | 28.85772 | 32246 ft | 451 kts | 231° |
| 2026-04-24 11:41 | -19.87331 | 28.81059 | 32253 ft | 451 kts | 231° |
| 2026-04-24 11:41 | -19.91727 | 28.76358 | 32253 ft | 452 kts | 231° |
| 2026-04-24 11:42 | -19.96155 | 28.71620 | 32258 ft | 451 kts | 231° |
| 2026-04-24 11:42 | -20.00559 | 28.66904 | 32268 ft | 450 kts | 231° |
| 2026-04-24 11:43 | -20.05631 | 28.62777 | 32272 ft | 465 kts | 216° |
| 2026-04-24 11:43 | -20.11319 | 28.59475 | 32257 ft | 465 kts | 215° |
| 2026-04-24 11:44 | -20.17012 | 28.56187 | 32254 ft | 467 kts | 215° |
| 2026-04-24 11:44 | -20.22725 | 28.52879 | 32247 ft | 465 kts | 215° |
| 2026-04-24 11:45 | -20.28428 | 28.49568 | 32241 ft | 465 kts | 215° |
| 2026-04-24 11:45 | -20.34131 | 28.46251 | 32235 ft | 469 kts | 215° |
| 2026-04-24 11:46 | -20.39827 | 28.42936 | 32232 ft | 468 kts | 215° |
| 2026-04-24 11:46 | -20.45571 | 28.39589 | 32238 ft | 470 kts | 215° |
| 2026-04-24 11:47 | -20.51272 | 28.36265 | 32237 ft | 466 kts | 215° |
| 2026-04-24 11:47 | -20.56986 | 28.32929 | 32249 ft | 468 kts | 216° |
| 2026-04-24 11:48 | -20.62662 | 28.29613 | 32241 ft | 467 kts | 216° |
| 2026-04-24 11:48 | -20.68373 | 28.26273 | 32235 ft | 467 kts | 216° |
| 2026-04-24 11:49 | -20.74118 | 28.22910 | 32228 ft | 468 kts | 216° |
| 2026-04-24 11:49 | -20.79832 | 28.19562 | 32230 ft | 472 kts | 216° |
| 2026-04-24 11:50 | -20.85537 | 28.16218 | 32221 ft | 468 kts | 216° |
| 2026-04-24 11:50 | -20.91254 | 28.12863 | 32215 ft | 468 kts | 216° |
| 2026-04-24 11:51 | -20.96983 | 28.09497 | 32215 ft | 469 kts | 216° |
| 2026-04-24 11:51 | -21.02733 | 28.06117 | 32208 ft | 471 kts | 216° |
| 2026-04-24 11:52 | -21.08494 | 28.02727 | 32209 ft | 471 kts | 216° |
| 2026-04-24 11:52 | -21.14188 | 27.99374 | 32205 ft | 470 kts | 216° |
| 2026-04-24 11:53 | -21.19943 | 27.95982 | 32202 ft | 469 kts | 216° |
| 2026-04-24 11:53 | -21.25662 | 27.92608 | 32204 ft | 469 kts | 216° |
| 2026-04-24 11:54 | -21.31343 | 27.89254 | 32207 ft | 468 kts | 216° |
| 2026-04-24 11:54 | -21.37074 | 27.85854 | 32204 ft | 468 kts | 216° |
| 2026-04-24 11:55 | -21.42779 | 27.82466 | 32204 ft | 467 kts | 216° |
| 2026-04-24 11:55 | -21.48491 | 27.79069 | 32206 ft | 471 kts | 216° |
| 2026-04-24 11:56 | -21.54187 | 27.75682 | 32213 ft | 467 kts | 216° |
| 2026-04-24 11:56 | -21.59875 | 27.72294 | 32208 ft | 470 kts | 216° |
| 2026-04-24 11:57 | -21.65564 | 27.68905 | 32209 ft | 464 kts | 216° |
| 2026-04-24 11:57 | -21.71247 | 27.65514 | 32213 ft | 467 kts | 216° |
| 2026-04-24 11:58 | -21.76931 | 27.62121 | 32211 ft | 466 kts | 216° |
| 2026-04-24 11:58 | -21.82577 | 27.58746 | 32215 ft | 466 kts | 216° |
| 2026-04-24 11:59 | -21.88240 | 27.55359 | 32215 ft | 466 kts | 216° |
| 2026-04-24 11:59 | -21.93941 | 27.51946 | 32201 ft | 465 kts | 216° |
| 2026-04-24 12:00 | -21.99585 | 27.48566 | 32199 ft | 465 kts | 216° |
| 2026-04-24 12:00 | -22.05250 | 27.45174 | 32198 ft | 466 kts | 215° |
| 2026-04-24 12:01 | -22.10908 | 27.41784 | 32193 ft | 465 kts | 215° |
| 2026-04-24 12:01 | -22.16570 | 27.38387 | 32195 ft | 465 kts | 215° |
| 2026-04-24 12:02 | -22.22244 | 27.34981 | 32192 ft | 463 kts | 216° |
| 2026-04-24 12:02 | -22.27873 | 27.31598 | 32224 ft | 464 kts | 216° |
| 2026-04-24 12:03 | -22.33498 | 27.28215 | 32233 ft | 462 kts | 216° |
| 2026-04-24 12:03 | -22.39150 | 27.24845 | 32237 ft | 461 kts | 215° |
| 2026-04-24 12:04 | -22.44741 | 27.21526 | 32234 ft | 460 kts | 215° |
| 2026-04-24 12:04 | -22.50377 | 27.18176 | 32231 ft | 461 kts | 215° |
| 2026-04-24 12:05 | -22.56015 | 27.14821 | 32231 ft | 460 kts | 215° |
| 2026-04-24 12:05 | -22.61628 | 27.11478 | 32241 ft | 460 kts | 215° |
| 2026-04-24 12:06 | -22.67234 | 27.08135 | 32234 ft | 459 kts | 215° |
| 2026-04-24 12:06 | -22.72825 | 27.04797 | 32225 ft | 461 kts | 215° |
| 2026-04-24 12:07 | -22.78456 | 27.01422 | 32221 ft | 461 kts | 216° |
| 2026-04-24 12:07 | -22.84061 | 26.97994 | 32219 ft | 460 kts | 216° |
| 2026-04-24 12:08 | -22.89625 | 26.94587 | 32217 ft | 461 kts | 216° |
| 2026-04-24 12:08 | -22.95218 | 26.91162 | 32217 ft | 460 kts | 216° |
| 2026-04-24 12:09 | -23.00802 | 26.87739 | 32226 ft | 461 kts | 216° |
| 2026-04-24 12:09 | -23.06373 | 26.84322 | 32217 ft | 461 kts | 216° |
| 2026-04-24 12:10 | -23.11972 | 26.80884 | 32211 ft | 461 kts | 216° |
| 2026-04-24 12:11 | -23.20341 | 26.75741 | 32213 ft | 460 kts | 216° |
| 2026-04-24 12:11 | -23.25907 | 26.72315 | 32220 ft | 461 kts | 216° |
| 2026-04-24 12:12 | -23.31505 | 26.68867 | 32218 ft | 462 kts | 216° |
| 2026-04-24 12:12 | -23.37109 | 26.65412 | 32212 ft | 461 kts | 216° |
| 2026-04-24 12:13 | -23.42689 | 26.61968 | 32215 ft | 463 kts | 216° |
| 2026-04-24 12:13 | -23.48266 | 26.58523 | 32213 ft | 462 kts | 216° |
| 2026-04-24 12:14 | -23.53879 | 26.55052 | 32215 ft | 462 kts | 216° |
| 2026-04-24 12:14 | -23.59465 | 26.51594 | 32222 ft | 463 kts | 216° |
| 2026-04-24 12:15 | -23.65053 | 26.48132 | 32218 ft | 463 kts | 216° |
| 2026-04-24 12:15 | -23.70658 | 26.44655 | 32216 ft | 464 kts | 216° |
| 2026-04-24 12:16 | -23.76264 | 26.41196 | 32216 ft | 462 kts | 216° |
| 2026-04-24 12:16 | -23.81905 | 26.37717 | 32214 ft | 464 kts | 216° |
| 2026-04-24 12:17 | -23.87483 | 26.34190 | 32230 ft | 461 kts | 219° |
| 2026-04-24 12:17 | -23.92861 | 26.30393 | 32233 ft | 460 kts | 220° |
| 2026-04-24 12:18 | -23.98219 | 26.26614 | 32230 ft | 461 kts | 219° |
| 2026-04-24 12:18 | -24.03650 | 26.22794 | 32239 ft | 463 kts | 219° |
| 2026-04-24 12:19 | -24.09042 | 26.19006 | 32232 ft | 462 kts | 219° |
| 2026-04-24 12:19 | -24.14473 | 26.15192 | 32230 ft | 462 kts | 220° |
| 2026-04-24 12:20 | -24.19864 | 26.11402 | 32228 ft | 462 kts | 220° |
| 2026-04-24 12:20 | -24.25288 | 26.07587 | 32235 ft | 464 kts | 220° |
| 2026-04-24 12:21 | -24.30725 | 26.03759 | 32220 ft | 463 kts | 220° |
| 2026-04-24 12:21 | -24.36141 | 25.99943 | 32235 ft | 463 kts | 220° |
| 2026-04-24 12:22 | -24.41584 | 25.96103 | 32234 ft | 464 kts | 220° |
| 2026-04-24 12:22 | -24.46971 | 25.92300 | 32241 ft | 463 kts | 220° |
| 2026-04-24 12:23 | -24.52416 | 25.88451 | 32258 ft | 464 kts | 220° |
| 2026-04-24 12:23 | -24.57846 | 25.84608 | 32239 ft | 465 kts | 220° |
| 2026-04-24 12:24 | -24.63138 | 25.80607 | 32242 ft | 460 kts | 225° |
| 2026-04-24 12:24 | -24.68246 | 25.76292 | 32250 ft | 462 kts | 225° |
| 2026-04-24 12:25 | -24.73362 | 25.71993 | 32239 ft | 465 kts | 224° |
| 2026-04-24 12:25 | -24.78475 | 25.67718 | 32238 ft | 463 kts | 225° |
| 2026-04-24 12:26 | -24.83601 | 25.63433 | 32242 ft | 464 kts | 224° |
| 2026-04-24 12:26 | -24.88747 | 25.59132 | 32232 ft | 467 kts | 224° |
| 2026-04-24 12:27 | -24.93920 | 25.54810 | 32243 ft | 464 kts | 224° |
| 2026-04-24 12:27 | -24.99090 | 25.50483 | 32238 ft | 467 kts | 224° |
| 2026-04-24 12:28 | -25.04239 | 25.46173 | 32246 ft | 469 kts | 224° |
| 2026-04-24 12:28 | -25.09423 | 25.41829 | 32244 ft | 465 kts | 224° |
| 2026-04-24 12:29 | -25.14564 | 25.37516 | 32237 ft | 466 kts | 224° |
| 2026-04-24 12:29 | -25.19740 | 25.33169 | 32247 ft | 464 kts | 225° |
| 2026-04-24 12:30 | -25.24900 | 25.28828 | 32245 ft | 469 kts | 225° |
| 2026-04-24 12:30 | -25.30042 | 25.24503 | 32244 ft | 464 kts | 225° |
| 2026-04-24 12:31 | -25.35206 | 25.20100 | 32239 ft | 465 kts | 228° |
| 2026-04-24 12:31 | -25.39295 | 25.14854 | 32241 ft | 445 kts | 244° |
| 2026-04-24 12:32 | -25.43037 | 25.09333 | 32235 ft | 458 kts | 232° |
| 2026-04-24 12:32 | -25.47840 | 25.04627 | 32236 ft | 462 kts | 227° |
| 2026-04-24 12:33 | -25.52726 | 25.00005 | 32234 ft | 460 kts | 227° |
| 2026-04-24 12:33 | -25.57597 | 24.95412 | 32233 ft | 462 kts | 227° |
| 2026-04-24 12:34 | -25.62499 | 24.90799 | 32230 ft | 460 kts | 227° |
| 2026-04-24 12:34 | -25.67388 | 24.86197 | 32232 ft | 462 kts | 227° |
| 2026-04-24 12:35 | -25.72264 | 24.81605 | 32230 ft | 460 kts | 227° |
| 2026-04-24 12:35 | -25.77132 | 24.77018 | 32230 ft | 461 kts | 227° |
| 2026-04-24 12:36 | -25.82024 | 24.72403 | 32225 ft | 461 kts | 227° |
| 2026-04-24 12:36 | -25.86923 | 24.67854 | 32226 ft | 461 kts | 226° |
| 2026-04-24 12:37 | -25.91874 | 24.63303 | 32225 ft | 462 kts | 226° |
| 2026-04-24 12:37 | -25.96802 | 24.58767 | 32223 ft | 459 kts | 226° |
| 2026-04-24 12:38 | -26.01692 | 24.54256 | 32224 ft | 460 kts | 226° |
| 2026-04-24 12:38 | -26.06620 | 24.49703 | 32224 ft | 461 kts | 225° |
| 2026-04-24 12:39 | -26.16441 | 24.40615 | 32213 ft | 459 kts | 225° |
| 2026-04-24 12:40 | -26.21384 | 24.36032 | 32213 ft | 459 kts | 225° |
| 2026-04-24 12:40 | -26.26273 | 24.31495 | 32225 ft | 458 kts | 225° |
| 2026-04-24 12:41 | -26.31165 | 24.26950 | 32226 ft | 458 kts | 225° |
| 2026-04-24 12:41 | -26.36069 | 24.22387 | 32224 ft | 458 kts | 225° |
| 2026-04-24 12:42 | -26.40933 | 24.17857 | 32224 ft | 458 kts | 225° |
| 2026-04-24 12:42 | -26.45824 | 24.13296 | 32223 ft | 458 kts | 225° |
| 2026-04-24 12:43 | -26.50722 | 24.08724 | 32223 ft | 458 kts | 225° |
| 2026-04-24 12:43 | -26.55611 | 24.04155 | 32221 ft | 459 kts | 225° |
| 2026-04-24 12:44 | -26.60488 | 23.99593 | 32218 ft | 458 kts | 225° |
| 2026-04-24 12:44 | -26.65360 | 23.95029 | 32217 ft | 458 kts | 225° |
| 2026-04-24 12:45 | -26.70229 | 23.90464 | 32218 ft | 456 kts | 225° |
| 2026-04-24 12:45 | -26.75097 | 23.85893 | 32215 ft | 457 kts | 224° |
| 2026-04-24 12:46 | -26.79982 | 23.81301 | 32210 ft | 457 kts | 224° |
| 2026-04-24 12:46 | -26.84834 | 23.76735 | 32210 ft | 457 kts | 224° |
| 2026-04-24 12:47 | -26.89682 | 23.72168 | 32210 ft | 457 kts | 224° |
| 2026-04-24 12:47 | -26.94535 | 23.67590 | 32208 ft | 457 kts | 224° |
| 2026-04-24 12:48 | -26.99387 | 23.63009 | 32203 ft | 455 kts | 224° |
| 2026-04-24 12:48 | -27.04232 | 23.58428 | 32206 ft | 455 kts | 224° |
| 2026-04-24 12:49 | -27.09054 | 23.53864 | 32205 ft | 456 kts | 224° |
| 2026-04-24 12:49 | -27.13901 | 23.49271 | 32201 ft | 455 kts | 224° |
| 2026-04-24 12:50 | -27.18755 | 23.44665 | 32201 ft | 455 kts | 224° |
| 2026-04-24 12:50 | -27.23575 | 23.40087 | 32203 ft | 454 kts | 224° |
| 2026-04-24 12:51 | -27.28380 | 23.35517 | 32197 ft | 454 kts | 224° |
| 2026-04-24 12:51 | -27.33227 | 23.30902 | 32205 ft | 454 kts | 224° |
| 2026-04-24 12:52 | -27.38023 | 23.26330 | 32205 ft | 453 kts | 224° |
| 2026-04-24 12:52 | -27.42854 | 23.21719 | 32212 ft | 464 kts | 224° |
| 2026-04-24 12:52 | -27.45352 | 23.19330 | 32340 ft | 475 kts | 224° |
| 2026-04-24 12:53 | -27.47861 | 23.16932 | 32918 ft | 475 kts | 224° |
| 2026-04-24 12:53 | -27.50367 | 23.14537 | 33787 ft | 467 kts | 224° |
| 2026-04-24 12:53 | -27.52824 | 23.12189 | 34577 ft | 461 kts | 224° |
| 2026-04-24 12:53 | -27.55240 | 23.09876 | 35162 ft | 459 kts | 224° |
| 2026-04-24 12:54 | -27.57665 | 23.07552 | 35647 ft | 459 kts | 224° |
| 2026-04-24 12:54 | -27.60124 | 23.05194 | 36083 ft | 459 kts | 224° |
| 2026-04-24 12:54 | -27.62538 | 23.02877 | 36179 ft | 462 kts | 224° |
| 2026-04-24 12:55 | -27.67482 | 22.98224 | 36194 ft | 464 kts | 221° |
| 2026-04-24 12:55 | -27.72636 | 22.93702 | 36189 ft | 474 kts | 221° |
| 2026-04-24 12:56 | -27.77837 | 22.89128 | 36184 ft | 473 kts | 221° |
| 2026-04-24 12:56 | -27.82499 | 22.85014 | 36188 ft | 474 kts | 221° |
| 2026-04-24 12:57 | -27.87687 | 22.80423 | 36187 ft | 473 kts | 221° |
| 2026-04-24 12:57 | -27.92861 | 22.75834 | 36180 ft | 473 kts | 221° |
| 2026-04-24 12:58 | -27.98051 | 22.71225 | 36186 ft | 473 kts | 221° |
| 2026-04-24 12:58 | -28.03222 | 22.66625 | 36171 ft | 472 kts | 221° |
| 2026-04-24 12:59 | -28.08385 | 22.62026 | 36171 ft | 474 kts | 221° |
| 2026-04-24 12:59 | -28.13578 | 22.57394 | 36165 ft | 474 kts | 221° |
| 2026-04-24 13:00 | -28.18750 | 22.52776 | 36152 ft | 474 kts | 221° |
| 2026-04-24 13:00 | -28.23927 | 22.48146 | 36147 ft | 473 kts | 221° |
| 2026-04-24 13:01 | -28.29104 | 22.43511 | 36149 ft | 473 kts | 221° |
| 2026-04-24 13:01 | -28.34267 | 22.38883 | 36137 ft | 473 kts | 221° |
| 2026-04-24 13:02 | -28.39431 | 22.34247 | 36132 ft | 471 kts | 221° |
| 2026-04-24 13:02 | -28.44572 | 22.29625 | 36129 ft | 473 kts | 221° |
| 2026-04-24 13:03 | -28.49699 | 22.25012 | 36127 ft | 473 kts | 221° |
| 2026-04-24 13:03 | -28.54877 | 22.20347 | 36130 ft | 472 kts | 221° |
| 2026-04-24 13:04 | -28.60001 | 22.15723 | 36124 ft | 472 kts | 221° |
| 2026-04-24 13:04 | -28.65149 | 22.11072 | 36118 ft | 472 kts | 221° |
| 2026-04-24 13:05 | -28.70261 | 22.06448 | 36103 ft | 471 kts | 221° |
| 2026-04-24 13:05 | -28.75415 | 22.01780 | 36102 ft | 472 kts | 221° |
| 2026-04-24 13:06 | -28.80526 | 21.97144 | 36099 ft | 472 kts | 221° |
| 2026-04-24 13:06 | -28.85651 | 21.92491 | 36096 ft | 472 kts | 221° |
| 2026-04-24 13:07 | -28.90782 | 21.87826 | 36087 ft | 471 kts | 221° |
| 2026-04-24 13:07 | -28.95939 | 21.83130 | 36089 ft | 473 kts | 221° |
| 2026-04-24 13:08 | -29.01069 | 21.78454 | 36089 ft | 472 kts | 221° |
| 2026-04-24 13:08 | -29.06166 | 21.73801 | 36086 ft | 471 kts | 221° |
| 2026-04-24 13:09 | -29.13867 | 21.66760 | 36092 ft | 470 kts | 221° |
| 2026-04-24 13:09 | -29.18967 | 21.62089 | 36083 ft | 471 kts | 221° |
| 2026-04-24 13:10 | -29.24067 | 21.57411 | 36084 ft | 471 kts | 221° |
| 2026-04-24 13:10 | -29.29208 | 21.52691 | 36082 ft | 470 kts | 221° |
| 2026-04-24 13:11 | -29.34300 | 21.48009 | 36084 ft | 472 kts | 221° |
| 2026-04-24 13:11 | -29.39423 | 21.43292 | 36085 ft | 471 kts | 221° |
| 2026-04-24 13:12 | -29.44508 | 21.38604 | 36075 ft | 472 kts | 221° |
| 2026-04-24 13:12 | -29.49624 | 21.33881 | 36076 ft | 471 kts | 221° |
| 2026-04-24 13:13 | -29.54752 | 21.29142 | 36070 ft | 471 kts | 221° |
| 2026-04-24 13:13 | -29.59829 | 21.24442 | 36069 ft | 471 kts | 221° |
| 2026-04-24 13:14 | -29.64945 | 21.19701 | 36057 ft | 471 kts | 221° |
| 2026-04-24 13:14 | -29.70028 | 21.14983 | 36069 ft | 471 kts | 221° |
| 2026-04-24 13:15 | -29.75105 | 21.10265 | 36070 ft | 471 kts | 221° |
| 2026-04-24 13:15 | -29.80224 | 21.05501 | 36075 ft | 470 kts | 221° |
| 2026-04-24 13:16 | -29.85308 | 21.00764 | 36072 ft | 470 kts | 221° |
| 2026-04-24 13:16 | -29.90359 | 20.96050 | 36056 ft | 471 kts | 221° |
| 2026-04-24 13:17 | -29.95471 | 20.91274 | 36055 ft | 471 kts | 221° |
| 2026-04-24 13:17 | -30.00540 | 20.86531 | 36054 ft | 470 kts | 221° |
| 2026-04-24 13:18 | -30.05598 | 20.81792 | 36048 ft | 470 kts | 221° |
| 2026-04-24 13:18 | -30.10679 | 20.77025 | 36056 ft | 472 kts | 221° |
| 2026-04-24 13:19 | -30.15781 | 20.72232 | 36063 ft | 472 kts | 221° |
| 2026-04-24 13:19 | -30.20874 | 20.67440 | 36058 ft | 471 kts | 221° |
| 2026-04-24 13:20 | -30.25928 | 20.62679 | 36065 ft | 472 kts | 221° |
| 2026-04-24 13:20 | -30.31035 | 20.57862 | 36068 ft | 472 kts | 221° |
| 2026-04-24 13:21 | -30.36093 | 20.53083 | 36058 ft | 471 kts | 220° |
| 2026-04-24 13:21 | -30.41191 | 20.48261 | 36055 ft | 472 kts | 220° |
| 2026-04-24 13:22 | -30.46253 | 20.43465 | 36055 ft | 471 kts | 220° |
| 2026-04-24 13:22 | -30.51387 | 20.38760 | 36047 ft | 473 kts | 215° |
| 2026-04-24 13:23 | -30.57337 | 20.35399 | 36044 ft | 477 kts | 202° |
| 2026-04-24 13:23 | -30.63595 | 20.32751 | 36051 ft | 478 kts | 202° |
| 2026-04-24 13:24 | -30.69843 | 20.30095 | 36050 ft | 478 kts | 202° |
| 2026-04-24 13:24 | -30.76111 | 20.27412 | 36055 ft | 478 kts | 202° |
| 2026-04-24 13:25 | -30.82358 | 20.24729 | 36052 ft | 478 kts | 202° |
| 2026-04-24 13:25 | -30.88598 | 20.22040 | 36048 ft | 478 kts | 202° |
| 2026-04-24 13:26 | -30.94819 | 20.19355 | 36049 ft | 479 kts | 202° |
| 2026-04-24 13:26 | -31.01097 | 20.16640 | 36052 ft | 479 kts | 202° |
| 2026-04-24 13:27 | -31.07319 | 20.13945 | 36054 ft | 478 kts | 202° |
| 2026-04-24 13:27 | -31.13570 | 20.11232 | 36050 ft | 478 kts | 202° |
| 2026-04-24 13:28 | -31.19803 | 20.08525 | 36052 ft | 478 kts | 202° |
| 2026-04-24 13:28 | -31.26054 | 20.05805 | 36052 ft | 478 kts | 202° |
| 2026-04-24 13:29 | -31.32292 | 20.03087 | 36050 ft | 478 kts | 202° |
| 2026-04-24 13:29 | -31.38579 | 20.00343 | 36052 ft | 479 kts | 202° |
| 2026-04-24 13:30 | -31.44802 | 19.97624 | 36048 ft | 478 kts | 202° |
| 2026-04-24 13:30 | -31.51045 | 19.94892 | 36054 ft | 478 kts | 202° |
| 2026-04-24 13:31 | -31.57272 | 19.92164 | 36045 ft | 477 kts | 202° |
| 2026-04-24 13:31 | -31.63521 | 19.89421 | 36039 ft | 479 kts | 202° |
| 2026-04-24 13:32 | -31.69789 | 19.86667 | 36035 ft | 479 kts | 202° |
| 2026-04-24 13:32 | -31.75992 | 19.83937 | 36028 ft | 478 kts | 202° |
| 2026-04-24 13:33 | -31.82258 | 19.81175 | 36020 ft | 479 kts | 202° |
| 2026-04-24 13:33 | -31.88483 | 19.78428 | 36003 ft | 478 kts | 202° |
| 2026-04-24 13:34 | -31.94707 | 19.75676 | 35990 ft | 479 kts | 202° |
| 2026-04-24 13:34 | -32.00951 | 19.72912 | 35963 ft | 477 kts | 202° |
| 2026-04-24 13:35 | -32.07168 | 19.70156 | 35967 ft | 477 kts | 202° |
| 2026-04-24 13:35 | -32.13438 | 19.67373 | 35944 ft | 479 kts | 202° |
| 2026-04-24 13:36 | -32.19671 | 19.64601 | 35943 ft | 480 kts | 202° |
| 2026-04-24 13:36 | -32.25905 | 19.61826 | 35942 ft | 479 kts | 202° |
| 2026-04-24 13:37 | -32.32108 | 19.59059 | 35934 ft | 479 kts | 202° |
| 2026-04-24 13:37 | -32.38319 | 19.56288 | 35179 ft | 472 kts | 202° |
| 2026-04-24 13:38 | -32.41404 | 19.54940 | 34189 ft | 478 kts | 201° |
| 2026-04-24 13:38 | -32.44509 | 19.53590 | 33269 ft | 481 kts | 201° |
| 2026-04-24 13:38 | -32.47671 | 19.52216 | 32361 ft | 482 kts | 201° |
| 2026-04-24 13:38 | -32.50816 | 19.50846 | 31461 ft | 483 kts | 201° |
| 2026-04-24 13:39 | -32.53942 | 19.49483 | 30589 ft | 482 kts | 201° |
| 2026-04-24 13:39 | -32.57057 | 19.48125 | 30077 ft | 475 kts | 201° |
| 2026-04-24 13:39 | -32.60133 | 19.46781 | 29589 ft | 467 kts | 201° |
| 2026-04-24 13:39 | -32.63160 | 19.45459 | 29037 ft | 461 kts | 201° |
| 2026-04-24 13:40 | -32.66157 | 19.44147 | 28481 ft | 455 kts | 201° |
| 2026-04-24 13:40 | -32.69083 | 19.42866 | 27927 ft | 449 kts | 201° |
| 2026-04-24 13:40 | -32.72018 | 19.41581 | 27366 ft | 444 kts | 201° |
| 2026-04-24 13:40 | -32.74868 | 19.40330 | 26819 ft | 439 kts | 201° |
| 2026-04-24 13:41 | -32.77739 | 19.39070 | 26249 ft | 434 kts | 201° |
| 2026-04-24 13:41 | -32.80533 | 19.37861 | 25687 ft | 429 kts | 199° |
| 2026-04-24 13:41 | -32.83393 | 19.36903 | 25127 ft | 424 kts | 195° |
| 2026-04-24 13:41 | -32.86226 | 19.36019 | 24559 ft | 420 kts | 195° |
| 2026-04-24 13:42 | -32.89032 | 19.35146 | 23979 ft | 416 kts | 195° |
| 2026-04-24 13:42 | -32.91841 | 19.34271 | 23407 ft | 411 kts | 196° |
| 2026-04-24 13:42 | -32.94565 | 19.33420 | 22857 ft | 407 kts | 196° |
| 2026-04-24 13:42 | -32.97347 | 19.32550 | 22479 ft | 414 kts | 196° |
| 2026-04-24 13:43 | -33.00154 | 19.31671 | 22335 ft | 420 kts | 196° |
| 2026-04-24 13:43 | -33.02961 | 19.30792 | 21881 ft | 420 kts | 196° |
| 2026-04-24 13:43 | -33.05781 | 19.29908 | 21299 ft | 417 kts | 196° |
| 2026-04-24 13:43 | -33.08572 | 19.29033 | 20708 ft | 413 kts | 196° |
| 2026-04-24 13:44 | -33.11314 | 19.28172 | 20120 ft | 409 kts | 195° |
| 2026-04-24 13:44 | -33.14062 | 19.27309 | 19285 ft | 412 kts | 195° |
| 2026-04-24 13:44 | -33.16849 | 19.26432 | 18256 ft | 418 kts | 195° |
| 2026-04-24 13:44 | -33.19669 | 19.25545 | 17520 ft | 417 kts | 195° |
| 2026-04-24 13:45 | -33.22465 | 19.24665 | 16909 ft | 413 kts | 195° |
| 2026-04-24 13:45 | -33.25198 | 19.23804 | 16305 ft | 409 kts | 195° |
| 2026-04-24 13:45 | -33.27937 | 19.22941 | 15733 ft | 404 kts | 196° |
| 2026-04-24 13:45 | -33.30627 | 19.22093 | 15590 ft | 387 kts | 196° |
| 2026-04-24 13:46 | -33.33162 | 19.21293 | 15485 ft | 372 kts | 196° |
| 2026-04-24 13:46 | -33.35647 | 19.20509 | 15336 ft | 359 kts | 196° |
| 2026-04-24 13:46 | -33.37990 | 19.19768 | 15198 ft | 346 kts | 196° |
| 2026-04-24 13:46 | -33.40286 | 19.18975 | 15067 ft | 332 kts | 205° |
| 2026-04-24 13:47 | -33.42153 | 19.17513 | 15011 ft | 316 kts | 228° |
| 2026-04-24 13:47 | -33.43407 | 19.15393 | 14891 ft | 315 kts | 242° |
| 2026-04-24 13:47 | -33.44450 | 19.13077 | 14534 ft | 314 kts | 243° |
| 2026-04-24 13:47 | -33.45461 | 19.10776 | 14165 ft | 312 kts | 244° |
| 2026-04-24 13:48 | -33.46460 | 19.08516 | 13797 ft | 310 kts | 244° |
| 2026-04-24 13:48 | -33.47473 | 19.06248 | 13431 ft | 308 kts | 244° |
| 2026-04-24 13:48 | -33.48485 | 19.04009 | 13066 ft | 307 kts | 244° |
| 2026-04-24 13:48 | -33.49509 | 19.01770 | 12699 ft | 305 kts | 244° |
| 2026-04-24 13:49 | -33.50534 | 18.99543 | 12340 ft | 304 kts | 243° |
| 2026-04-24 13:49 | -33.51554 | 18.97340 | 11998 ft | 303 kts | 244° |
| 2026-04-24 13:49 | -33.52571 | 18.95152 | 11647 ft | 302 kts | 244° |
| 2026-04-24 13:49 | -33.53595 | 18.92965 | 11289 ft | 300 kts | 244° |
| 2026-04-24 13:50 | -33.54619 | 18.90792 | 10927 ft | 299 kts | 243° |
| 2026-04-24 13:50 | -33.55652 | 18.88606 | 10587 ft | 298 kts | 243° |
| 2026-04-24 13:50 | -33.56661 | 18.86478 | 10222 ft | 297 kts | 244° |
| 2026-04-24 13:50 | -33.57692 | 18.84312 | 9858 ft | 297 kts | 243° |
| 2026-04-24 13:51 | -33.58707 | 18.82181 | 9502 ft | 296 kts | 243° |
| 2026-04-24 13:51 | -33.59736 | 18.80020 | 9150 ft | 295 kts | 243° |
| 2026-04-24 13:51 | -33.60741 | 18.77913 | 8803 ft | 294 kts | 243° |
| 2026-04-24 13:51 | -33.61747 | 18.75798 | 8432 ft | 293 kts | 243° |
| 2026-04-24 13:52 | -33.62755 | 18.73677 | 8019 ft | 292 kts | 243° |
| 2026-04-24 13:52 | -33.63766 | 18.71541 | 7612 ft | 292 kts | 243° |
| 2026-04-24 13:52 | -33.64766 | 18.69422 | 7213 ft | 292 kts | 243° |
| 2026-04-24 13:52 | -33.65755 | 18.67316 | 6810 ft | 292 kts | 243° |
| 2026-04-24 13:53 | -33.66751 | 18.65185 | 6396 ft | 291 kts | 243° |
| 2026-04-24 13:53 | -33.67739 | 18.63058 | 5998 ft | 290 kts | 242° |
| 2026-04-24 13:53 | -33.69019 | 18.61201 | 5554 ft | 292 kts | 219° |
| 2026-04-24 13:53 | -33.70691 | 18.59828 | 5168 ft | 292 kts | 214° |
| 2026-04-24 13:54 | -33.72389 | 18.58534 | 4781 ft | 288 kts | 213° |
| 2026-04-24 13:54 | -33.74105 | 18.57342 | 4414 ft | 282 kts | 200° |
| 2026-04-24 13:54 | -33.75965 | 18.56690 | 4112 ft | 277 kts | 194° |
| 2026-04-24 13:54 | -33.77822 | 18.56156 | 3788 ft | 271 kts | 193° |
| 2026-04-24 13:55 | -33.79610 | 18.55650 | 3437 ft | 253 kts | 192° |
| 2026-04-24 13:55 | -33.81315 | 18.55599 | 3121 ft | 236 kts | 172° |
| 2026-04-24 13:55 | -33.82877 | 18.55943 | 2832 ft | 219 kts | 167° |
| 2026-04-24 13:55 | -33.84300 | 18.56348 | 2566 ft | 203 kts | 165° |
| 2026-04-24 13:56 | -33.85588 | 18.56746 | 2319 ft | 179 kts | 165° |
| 2026-04-24 13:56 | -33.86739 | 18.57106 | 2098 ft | 164 kts | 165° |
| 2026-04-24 13:56 | -33.87817 | 18.57443 | 1886 ft | 158 kts | 165° |
| 2026-04-24 13:56 | -33.88874 | 18.57775 | 1673 ft | 155 kts | 164° |
| 2026-04-24 13:57 | -33.89923 | 18.58105 | 1458 ft | 154 kts | 164° |
| 2026-04-24 13:57 | -33.90962 | 18.58432 | 1244 ft | 153 kts | 164° |
| 2026-04-24 13:57 | -33.91980 | 18.58752 | 1033 ft | 150 kts | 164° |
| 2026-04-24 13:57 | -33.93000 | 18.59073 | 822 ft | 149 kts | 164° |
| 2026-04-24 13:58 | -33.93997 | 18.59386 | 616 ft | 147 kts | 164° |
| 2026-04-24 13:58 | -33.94978 | 18.59695 | 415 ft | 146 kts | 164° |
| 2026-04-24 13:58 | -33.95965 | 18.59996 | 222 ft | 145 kts | 164° |
| 2026-04-24 13:58 | -33.96883 | 18.60291 | 164 ft | 117 kts | 165° |
| 2026-04-24 13:59 | -33.97524 | 18.60497 | 162 ft | 72 kts | 165° |
| 2026-04-24 13:59 | -33.97866 | 18.60605 | 159 ft | 32 kts | 165° |
| 2026-04-24 13:59 | -33.98068 | 18.60668 | 161 ft | 29 kts | 165° |
| 2026-04-24 13:59 | -33.98269 | 18.60731 | 162 ft | 29 kts | 165° |
| 2026-04-24 14:00 | -33.98459 | 18.60792 | 163 ft | 26 kts | 164° |
| 2026-04-24 14:00 | -33.98632 | 18.60849 | 163 ft | 24 kts | 165° |
| 2026-04-24 14:00 | -33.98741 | 18.60865 | 162 ft | 13 kts | 201° |
| 2026-04-24 14:00 | -33.98789 | 18.60780 | 162 ft | 12 kts | 247° |
| 2026-04-24 14:01 | -33.98798 | 18.60677 | 160 ft | 12 kts | 300° |
| 2026-04-24 14:01 | -33.98724 | 18.60621 | 160 ft | 12 kts | 342° |
| 2026-04-24 14:01 | -33.98643 | 18.60590 | 160 ft | 12 kts | 340° |
| 2026-04-24 14:01 | -33.98612 | 18.60576 | 160 ft | 12 kts | 340° |
| 2026-04-24 14:02 | -33.98508 | 18.60531 | 159 ft | 12 kts | 340° |
| 2026-04-24 14:02 | -33.98426 | 18.60495 | 159 ft | 12 kts | 340° |
| 2026-04-24 14:02 | -33.98346 | 18.60461 | 159 ft | 11 kts | 340° |
| 2026-04-24 14:02 | -33.98268 | 18.60427 | 159 ft | 11 kts | 340° |
| 2026-04-24 14:03 | -33.98190 | 18.60394 | 159 ft | 11 kts | 340° |
| 2026-04-24 14:03 | -33.98112 | 18.60361 | 158 ft | 11 kts | 340° |
| 2026-04-24 14:03 | -33.98035 | 18.60328 | 158 ft | 11 kts | 340° |
| 2026-04-24 14:03 | -33.97958 | 18.60295 | 158 ft | 11 kts | 340° |
| 2026-04-24 14:04 | -33.97884 | 18.60264 | 158 ft | 11 kts | 340° |
| 2026-04-24 14:04 | -33.97811 | 18.60233 | 158 ft | 12 kts | 340° |
| 2026-04-24 14:04 | -33.97728 | 18.60197 | 159 ft | 12 kts | 340° |
| 2026-04-24 14:04 | -33.97654 | 18.60165 | 160 ft | 10 kts | 340° |
| 2026-04-24 14:05 | -33.97589 | 18.60135 | 162 ft | 10 kts | 337° |
| 2026-04-24 14:05 | -33.97514 | 18.60095 | 163 ft | 13 kts | 337° |
| 2026-04-24 14:05 | -33.97425 | 18.60058 | 166 ft | 12 kts | 342° |
| 2026-04-24 14:05 | -33.97345 | 18.60031 | 167 ft | 11 kts | 345° |
| 2026-04-24 14:06 | -33.97272 | 18.60008 | 167 ft | 10 kts | 345° |
| 2026-04-24 14:06 | -33.97199 | 18.59987 | 167 ft | 11 kts | 346° |
| 2026-04-24 14:06 | -33.97122 | 18.59966 | 168 ft | 10 kts | 349° |
| 2026-04-24 14:06 | -33.97055 | 18.59950 | 170 ft | 8 kts | 347° |
| 2026-04-24 14:07 | -33.97009 | 18.59937 | 172 ft | 5 kts | 345° |
| 2026-04-24 14:07 | -33.96967 | 18.59924 | 174 ft | 6 kts | 345° |
| 2026-04-24 14:07 | -33.96931 | 18.59912 | 177 ft | 4 kts | 344° |
| 2026-04-24 14:07 | -33.96905 | 18.59903 | 179 ft | 2 kts | 339° |
| 2026-04-24 14:08 | -33.96893 | 18.59892 | 179 ft | 2 kts | 306° |
| 2026-04-24 14:08 | -33.96890 | 18.59863 | 180 ft | 6 kts | 266° |
| 2026-04-24 14:08 | -33.96896 | 18.59826 | 179 ft | 2 kts | 254° |
| 2026-04-24 14:08 | -33.96898 | 18.59817 | 179 ft | 0 kts | 255° |
| 2026-04-24 14:09 | -33.96900 | 18.59811 | 178 ft | 0 kts | 255° |
| 2026-04-24 14:09 | -33.96900 | 18.59809 | 178 ft | 0 kts | 255° |